BAW6NC EGLL-CYUL
Flight info
| Callsign | BAW6NC |
|---|---|
| Flight time | 6h 44m |
| Altitude | 36000 |
| Route | DCT CPT L9 BUCGO DCT FELCA DCT OFSOX DCT BANBA DCT TOBOR/M083F370 NATC ELSIR/N0466F380 N412A MIILS DCT TIBOS ROCKT3 |
| Aircraft | B77W/H-SDE1E3FGHIJ3J4J5J6M1M2P2RWXYZ/LB1D1 |
Departure
| Time | 2026-05-06 13:21 |
|---|---|
| Airport | London Heathrow Airport (EGLL) |
Arrival
| Time | 2026-05-06 20:05 |
|---|---|
| Airport | Montreal / Pierre Elliott Trudeau International Airport (CYUL) |
| Time | Latitude | Longitude | Altitude | Speed | Heading |
|---|---|---|---|---|---|
| 2026-05-06 12:20 | 51.47213 | -0.48019 | 91 ft | 0 kts | 270° |
| 2026-05-06 13:11 | 51.47213 | -0.48004 | 94 ft | 3 kts | 270° |
| 2026-05-06 13:11 | 51.47213 | -0.47968 | 91 ft | 3 kts | 270° |
| 2026-05-06 13:11 | 51.47214 | -0.47932 | 94 ft | 3 kts | 270° |
| 2026-05-06 13:11 | 51.47214 | -0.47902 | 94 ft | 3 kts | 251° |
| 2026-05-06 13:12 | 51.47225 | -0.47877 | 94 ft | 3 kts | 202° |
| 2026-05-06 13:12 | 51.47245 | -0.47871 | 92 ft | 3 kts | 180° |
| 2026-05-06 13:12 | 51.47267 | -0.47871 | 93 ft | 3 kts | 180° |
| 2026-05-06 13:12 | 51.47273 | -0.47871 | 91 ft | 0 kts | 180° |
| 2026-05-06 13:14 | 51.47272 | -0.47871 | 91 ft | 0 kts | 180° |
| 2026-05-06 13:15 | 51.47269 | -0.47871 | 91 ft | 1 kts | 180° |
| 2026-05-06 13:15 | 51.47263 | -0.47871 | 93 ft | 1 kts | 180° |
| 2026-05-06 13:15 | 51.47239 | -0.47871 | 92 ft | 7 kts | 179° |
| 2026-05-06 13:15 | 51.47190 | -0.47871 | 91 ft | 7 kts | 179° |
| 2026-05-06 13:16 | 51.47142 | -0.47870 | 93 ft | 7 kts | 179° |
| 2026-05-06 13:16 | 51.47094 | -0.47869 | 92 ft | 7 kts | 179° |
| 2026-05-06 13:16 | 51.47045 | -0.47869 | 91 ft | 7 kts | 179° |
| 2026-05-06 13:16 | 51.46996 | -0.47868 | 93 ft | 7 kts | 179° |
| 2026-05-06 13:17 | 51.46947 | -0.47868 | 91 ft | 7 kts | 179° |
| 2026-05-06 13:17 | 51.46899 | -0.47867 | 93 ft | 7 kts | 179° |
| 2026-05-06 13:17 | 51.46850 | -0.47866 | 93 ft | 7 kts | 179° |
| 2026-05-06 13:17 | 51.46802 | -0.47865 | 94 ft | 7 kts | 179° |
| 2026-05-06 13:18 | 51.46756 | -0.47890 | 95 ft | 9 kts | 229° |
| 2026-05-06 13:18 | 51.46744 | -0.48021 | 91 ft | 15 kts | 269° |
| 2026-05-06 13:18 | 51.46743 | -0.48189 | 91 ft | 15 kts | 269° |
| 2026-05-06 13:18 | 51.46741 | -0.48355 | 91 ft | 15 kts | 269° |
| 2026-05-06 13:19 | 51.46741 | -0.48520 | 91 ft | 15 kts | 269° |
| 2026-05-06 13:19 | 51.46740 | -0.48672 | 91 ft | 10 kts | 268° |
| 2026-05-06 13:19 | 51.46698 | -0.48741 | 95 ft | 10 kts | 190° |
| 2026-05-06 13:19 | 51.46631 | -0.48754 | 92 ft | 10 kts | 193° |
| 2026-05-06 13:20 | 51.46565 | -0.48783 | 91 ft | 10 kts | 193° |
| 2026-05-06 13:20 | 51.46500 | -0.48759 | 94 ft | 10 kts | 144° |
| 2026-05-06 13:20 | 51.46480 | -0.48654 | 92 ft | 14 kts | 91° |
| 2026-05-06 13:20 | 51.46479 | -0.48271 | 93 ft | 63 kts | 89° |
| 2026-05-06 13:21 | 51.46484 | -0.47157 | 95 ft | 133 kts | 90° |
| 2026-05-06 13:21 | 51.46476 | -0.45436 | 230 ft | 167 kts | 88° |
| 2026-05-06 13:21 | 51.46454 | -0.43590 | 935 ft | 165 kts | 87° |
| 2026-05-06 13:21 | 51.46323 | -0.41686 | 1396 ft | 185 kts | 108° |
| 2026-05-06 13:22 | 51.45454 | -0.39980 | 1586 ft | 216 kts | 146° |
| 2026-05-06 13:22 | 51.43943 | -0.39261 | 1817 ft | 244 kts | 180° |
| 2026-05-06 13:22 | 51.42246 | -0.39945 | 2179 ft | 258 kts | 213° |
| 2026-05-06 13:22 | 51.40937 | -0.41922 | 2715 ft | 261 kts | 242° |
| 2026-05-06 13:23 | 51.40374 | -0.44656 | 3328 ft | 261 kts | 270° |
| 2026-05-06 13:23 | 51.40497 | -0.47531 | 3984 ft | 260 kts | 280° |
| 2026-05-06 13:23 | 51.40726 | -0.50411 | 4775 ft | 261 kts | 280° |
| 2026-05-06 13:23 | 51.40958 | -0.53292 | 5581 ft | 261 kts | 281° |
| 2026-05-06 13:24 | 51.41191 | -0.56189 | 6384 ft | 263 kts | 281° |
| 2026-05-06 13:24 | 51.41523 | -0.59064 | 7003 ft | 264 kts | 290° |
| 2026-05-06 13:24 | 51.42167 | -0.61831 | 7676 ft | 267 kts | 295° |
| 2026-05-06 13:24 | 51.42888 | -0.64575 | 8504 ft | 268 kts | 295° |
| 2026-05-06 13:25 | 51.43617 | -0.67348 | 9256 ft | 273 kts | 294° |
| 2026-05-06 13:25 | 51.44338 | -0.70155 | 9961 ft | 278 kts | 293° |
| 2026-05-06 13:25 | 51.45072 | -0.73064 | 10542 ft | 289 kts | 293° |
| 2026-05-06 13:25 | 51.45849 | -0.76197 | 10741 ft | 315 kts | 292° |
| 2026-05-06 13:26 | 51.46686 | -0.79606 | 10941 ft | 340 kts | 292° |
| 2026-05-06 13:26 | 51.47572 | -0.83265 | 11403 ft | 357 kts | 292° |
| 2026-05-06 13:26 | 51.48474 | -0.87023 | 12060 ft | 369 kts | 291° |
| 2026-05-06 13:26 | 51.49403 | -0.90919 | 13056 ft | 373 kts | 291° |
| 2026-05-06 13:27 | 51.50329 | -0.94822 | 14069 ft | 376 kts | 291° |
| 2026-05-06 13:27 | 51.51246 | -0.98701 | 14997 ft | 379 kts | 291° |
| 2026-05-06 13:27 | 51.52188 | -1.02691 | 15908 ft | 382 kts | 291° |
| 2026-05-06 13:27 | 51.53136 | -1.06716 | 16795 ft | 388 kts | 290° |
| 2026-05-06 13:28 | 51.54106 | -1.10836 | 17520 ft | 396 kts | 290° |
| 2026-05-06 13:28 | 51.55070 | -1.14938 | 18555 ft | 395 kts | 290° |
| 2026-05-06 13:28 | 51.56048 | -1.19114 | 19275 ft | 401 kts | 290° |
| 2026-05-06 13:28 | 51.57029 | -1.23312 | 19973 ft | 407 kts | 290° |
| 2026-05-06 13:29 | 51.58031 | -1.27600 | 20720 ft | 411 kts | 290° |
| 2026-05-06 13:29 | 51.59047 | -1.31954 | 21413 ft | 416 kts | 290° |
| 2026-05-06 13:29 | 51.60069 | -1.36344 | 22188 ft | 420 kts | 290° |
| 2026-05-06 13:29 | 51.61160 | -1.40684 | 22847 ft | 425 kts | 294° |
| 2026-05-06 13:30 | 51.62540 | -1.44944 | 23491 ft | 431 kts | 297° |
| 2026-05-06 13:30 | 51.63992 | -1.49217 | 24085 ft | 435 kts | 297° |
| 2026-05-06 13:30 | 51.65419 | -1.53463 | 24673 ft | 438 kts | 297° |
| 2026-05-06 13:30 | 51.66862 | -1.57815 | 25233 ft | 441 kts | 297° |
| 2026-05-06 13:31 | 51.68304 | -1.62220 | 25780 ft | 445 kts | 295° |
| 2026-05-06 13:31 | 51.69536 | -1.66822 | 26294 ft | 448 kts | 288° |
| 2026-05-06 13:31 | 51.70433 | -1.71613 | 26827 ft | 451 kts | 283° |
| 2026-05-06 13:31 | 51.71055 | -1.76597 | 27326 ft | 454 kts | 277° |
| 2026-05-06 13:32 | 51.71396 | -1.81686 | 27831 ft | 457 kts | 275° |
| 2026-05-06 13:32 | 51.71721 | -1.86749 | 28279 ft | 461 kts | 275° |
| 2026-05-06 13:32 | 51.72071 | -1.91905 | 28725 ft | 464 kts | 276° |
| 2026-05-06 13:32 | 51.72439 | -1.97086 | 29153 ft | 467 kts | 276° |
| 2026-05-06 13:33 | 51.72814 | -2.02318 | 29607 ft | 470 kts | 276° |
| 2026-05-06 13:33 | 51.73184 | -2.07552 | 30099 ft | 469 kts | 276° |
| 2026-05-06 13:33 | 51.73550 | -2.12780 | 30611 ft | 468 kts | 276° |
| 2026-05-06 13:33 | 51.73913 | -2.17992 | 31184 ft | 465 kts | 276° |
| 2026-05-06 13:34 | 51.74271 | -2.23171 | 31742 ft | 462 kts | 276° |
| 2026-05-06 13:34 | 51.74624 | -2.28280 | 32239 ft | 461 kts | 276° |
| 2026-05-06 13:34 | 51.74978 | -2.33433 | 32709 ft | 459 kts | 276° |
| 2026-05-06 13:34 | 51.75329 | -2.38562 | 33190 ft | 458 kts | 276° |
| 2026-05-06 13:35 | 51.75671 | -2.43614 | 33658 ft | 456 kts | 276° |
| 2026-05-06 13:35 | 51.76013 | -2.48701 | 34134 ft | 454 kts | 275° |
| 2026-05-06 13:35 | 51.76352 | -2.53773 | 34467 ft | 454 kts | 275° |
| 2026-05-06 13:35 | 51.76676 | -2.58846 | 34726 ft | 455 kts | 275° |
| 2026-05-06 13:36 | 51.76988 | -2.63889 | 34995 ft | 456 kts | 275° |
| 2026-05-06 13:36 | 51.77312 | -2.69004 | 35307 ft | 456 kts | 275° |
| 2026-05-06 13:36 | 51.77639 | -2.74096 | 35589 ft | 456 kts | 275° |
| 2026-05-06 13:36 | 51.77969 | -2.79207 | 35893 ft | 456 kts | 275° |
| 2026-05-06 13:37 | 51.78294 | -2.84274 | 35992 ft | 461 kts | 275° |
| 2026-05-06 13:37 | 51.78942 | -2.94555 | 36034 ft | 460 kts | 275° |
| 2026-05-06 13:38 | 51.79580 | -3.04805 | 36039 ft | 454 kts | 275° |
| 2026-05-06 13:38 | 51.80198 | -3.14929 | 36043 ft | 453 kts | 275° |
| 2026-05-06 13:39 | 51.80807 | -3.25029 | 36033 ft | 453 kts | 275° |
| 2026-05-06 13:39 | 51.81408 | -3.35144 | 36024 ft | 453 kts | 275° |
| 2026-05-06 13:40 | 51.82005 | -3.45293 | 36016 ft | 455 kts | 275° |
| 2026-05-06 13:40 | 51.82667 | -3.55448 | 36008 ft | 456 kts | 279° |
| 2026-05-06 13:41 | 51.83957 | -3.65483 | 36013 ft | 457 kts | 282° |
| 2026-05-06 13:41 | 51.85300 | -3.75584 | 36005 ft | 457 kts | 281° |
| 2026-05-06 13:42 | 51.86607 | -3.85649 | 36008 ft | 458 kts | 281° |
| 2026-05-06 13:42 | 51.87888 | -3.95704 | 36005 ft | 458 kts | 281° |
| 2026-05-06 13:43 | 51.89159 | -4.05779 | 36002 ft | 457 kts | 281° |
| 2026-05-06 13:43 | 51.90423 | -4.15833 | 36007 ft | 456 kts | 281° |
| 2026-05-06 13:44 | 51.91675 | -4.25884 | 36008 ft | 456 kts | 281° |
| 2026-05-06 13:44 | 51.92926 | -4.35993 | 36007 ft | 456 kts | 281° |
| 2026-05-06 13:45 | 51.94154 | -4.45999 | 36013 ft | 456 kts | 281° |
| 2026-05-06 13:45 | 51.95997 | -4.61138 | 36027 ft | 455 kts | 281° |
| 2026-05-06 13:46 | 51.97204 | -4.71152 | 36017 ft | 455 kts | 281° |
| 2026-05-06 13:46 | 51.98406 | -4.81216 | 36016 ft | 454 kts | 281° |
| 2026-05-06 13:47 | 51.99598 | -4.91253 | 36019 ft | 453 kts | 281° |
| 2026-05-06 13:47 | 52.00779 | -5.01287 | 36021 ft | 453 kts | 281° |
| 2026-05-06 13:48 | 52.01760 | -5.09662 | 36024 ft | 453 kts | 281° |
| 2026-05-06 13:48 | 52.02554 | -5.19765 | 36023 ft | 453 kts | 272° |
| 2026-05-06 13:49 | 52.02244 | -5.29954 | 36028 ft | 453 kts | 264° |
| 2026-05-06 13:49 | 52.01495 | -5.40116 | 36023 ft | 454 kts | 264° |
| 2026-05-06 13:50 | 52.00753 | -5.50271 | 36028 ft | 454 kts | 264° |
| 2026-05-06 13:50 | 52.00021 | -5.60459 | 36028 ft | 455 kts | 264° |
| 2026-05-06 13:51 | 51.99286 | -5.70645 | 36028 ft | 455 kts | 264° |
| 2026-05-06 13:51 | 51.98540 | -5.80863 | 36029 ft | 456 kts | 264° |
| 2026-05-06 13:52 | 51.97786 | -5.91084 | 36026 ft | 456 kts | 264° |
| 2026-05-06 13:52 | 51.97024 | -6.01256 | 36031 ft | 455 kts | 264° |
| 2026-05-06 13:53 | 51.96256 | -6.11464 | 36028 ft | 456 kts | 264° |
| 2026-05-06 13:53 | 51.95624 | -6.21655 | 36024 ft | 455 kts | 270° |
| 2026-05-06 13:54 | 51.96016 | -6.31884 | 36031 ft | 454 kts | 279° |
| 2026-05-06 13:54 | 51.97044 | -6.41996 | 36028 ft | 455 kts | 279° |
| 2026-05-06 13:55 | 51.98075 | -6.52102 | 36038 ft | 456 kts | 279° |
| 2026-05-06 13:55 | 51.99086 | -6.62269 | 36036 ft | 456 kts | 279° |
| 2026-05-06 13:56 | 52.00070 | -6.72391 | 36033 ft | 457 kts | 279° |
| 2026-05-06 13:56 | 52.01048 | -6.82616 | 36033 ft | 458 kts | 279° |
| 2026-05-06 13:57 | 52.02017 | -6.92833 | 36024 ft | 458 kts | 279° |
| 2026-05-06 13:57 | 52.02973 | -7.03006 | 36031 ft | 458 kts | 279° |
| 2026-05-06 13:58 | 52.03928 | -7.13258 | 36043 ft | 459 kts | 279° |
| 2026-05-06 13:58 | 52.04873 | -7.23510 | 36045 ft | 459 kts | 279° |
| 2026-05-06 13:59 | 52.05809 | -7.33745 | 36042 ft | 459 kts | 279° |
| 2026-05-06 13:59 | 52.06737 | -7.44007 | 36025 ft | 460 kts | 279° |
| 2026-05-06 14:00 | 52.07658 | -7.54300 | 36022 ft | 460 kts | 279° |
| 2026-05-06 14:00 | 52.08574 | -7.64621 | 36023 ft | 461 kts | 279° |
| 2026-05-06 14:01 | 52.09479 | -7.74950 | 36019 ft | 462 kts | 279° |
| 2026-05-06 14:01 | 52.10379 | -7.85316 | 36020 ft | 463 kts | 279° |
| 2026-05-06 14:02 | 52.11270 | -7.95692 | 36003 ft | 463 kts | 279° |
| 2026-05-06 14:02 | 52.12152 | -8.06075 | 36010 ft | 464 kts | 279° |
| 2026-05-06 14:03 | 52.13025 | -8.16461 | 36007 ft | 464 kts | 279° |
| 2026-05-06 14:03 | 52.13892 | -8.26881 | 36011 ft | 465 kts | 279° |
| 2026-05-06 14:04 | 52.14752 | -8.37314 | 36006 ft | 465 kts | 279° |
| 2026-05-06 14:04 | 52.15600 | -8.47753 | 35999 ft | 465 kts | 279° |
| 2026-05-06 14:05 | 52.16439 | -8.58194 | 36009 ft | 465 kts | 279° |
| 2026-05-06 14:05 | 52.17269 | -8.68641 | 36008 ft | 465 kts | 279° |
| 2026-05-06 14:06 | 52.18085 | -8.79025 | 36000 ft | 465 kts | 279° |
| 2026-05-06 14:06 | 52.18898 | -8.89490 | 36015 ft | 465 kts | 278° |
| 2026-05-06 14:07 | 52.19703 | -8.99983 | 36011 ft | 466 kts | 279° |
| 2026-05-06 14:07 | 52.20500 | -9.10483 | 36011 ft | 467 kts | 279° |
| 2026-05-06 14:08 | 52.21288 | -9.21003 | 36004 ft | 468 kts | 279° |
| 2026-05-06 14:08 | 52.22068 | -9.31516 | 36008 ft | 468 kts | 279° |
| 2026-05-06 14:09 | 52.22841 | -9.42096 | 36009 ft | 469 kts | 279° |
| 2026-05-06 14:09 | 52.23601 | -9.52620 | 36022 ft | 470 kts | 279° |
| 2026-05-06 14:10 | 52.24355 | -9.63211 | 36021 ft | 470 kts | 278° |
| 2026-05-06 14:10 | 52.25101 | -9.73820 | 36024 ft | 471 kts | 278° |
| 2026-05-06 14:11 | 52.25840 | -9.84465 | 36019 ft | 471 kts | 278° |
| 2026-05-06 14:11 | 52.26568 | -9.95079 | 36019 ft | 471 kts | 278° |
| 2026-05-06 14:12 | 52.27286 | -10.05704 | 36029 ft | 471 kts | 278° |
| 2026-05-06 14:12 | 52.27993 | -10.16325 | 36030 ft | 472 kts | 278° |
| 2026-05-06 14:13 | 52.28692 | -10.26969 | 36030 ft | 472 kts | 278° |
| 2026-05-06 14:13 | 52.29386 | -10.37661 | 36030 ft | 472 kts | 278° |
| 2026-05-06 14:14 | 52.30066 | -10.48292 | 36033 ft | 472 kts | 278° |
| 2026-05-06 14:14 | 52.30737 | -10.58956 | 36035 ft | 472 kts | 278° |
| 2026-05-06 14:15 | 52.31398 | -10.69603 | 36031 ft | 471 kts | 278° |
| 2026-05-06 14:15 | 52.32048 | -10.80242 | 36036 ft | 471 kts | 278° |
| 2026-05-06 14:16 | 52.32689 | -10.90892 | 36037 ft | 471 kts | 278° |
| 2026-05-06 14:16 | 52.33321 | -11.01515 | 36030 ft | 470 kts | 278° |
| 2026-05-06 14:17 | 52.33945 | -11.12195 | 36035 ft | 470 kts | 278° |
| 2026-05-06 14:17 | 52.34555 | -11.22810 | 36036 ft | 470 kts | 278° |
| 2026-05-06 14:18 | 52.35155 | -11.33413 | 36036 ft | 470 kts | 278° |
| 2026-05-06 14:18 | 52.35749 | -11.44092 | 36041 ft | 470 kts | 278° |
| 2026-05-06 14:19 | 52.36333 | -11.54754 | 36036 ft | 470 kts | 278° |
| 2026-05-06 14:19 | 52.36907 | -11.65374 | 36040 ft | 470 kts | 278° |
| 2026-05-06 14:20 | 52.37472 | -11.76063 | 36046 ft | 470 kts | 278° |
| 2026-05-06 14:20 | 52.38022 | -11.86659 | 36038 ft | 471 kts | 278° |
| 2026-05-06 14:21 | 52.38568 | -11.97337 | 36035 ft | 471 kts | 278° |
| 2026-05-06 14:21 | 52.39104 | -12.08017 | 36037 ft | 471 kts | 278° |
| 2026-05-06 14:22 | 52.39630 | -12.18693 | 36041 ft | 470 kts | 277° |
| 2026-05-06 14:22 | 52.40146 | -12.29368 | 36035 ft | 469 kts | 277° |
| 2026-05-06 14:23 | 52.40652 | -12.40024 | 36035 ft | 468 kts | 277° |
| 2026-05-06 14:23 | 52.41146 | -12.50638 | 36029 ft | 468 kts | 277° |
| 2026-05-06 14:24 | 52.41632 | -12.61253 | 36040 ft | 467 kts | 277° |
| 2026-05-06 14:24 | 52.42105 | -12.71862 | 36037 ft | 467 kts | 277° |
| 2026-05-06 14:25 | 52.42567 | -12.82421 | 36045 ft | 467 kts | 277° |
| 2026-05-06 14:25 | 52.43024 | -12.93016 | 36048 ft | 467 kts | 277° |
| 2026-05-06 14:26 | 52.43471 | -13.03643 | 36027 ft | 467 kts | 277° |
| 2026-05-06 14:26 | 52.43908 | -13.14261 | 36037 ft | 467 kts | 277° |
| 2026-05-06 14:27 | 52.44335 | -13.24883 | 36046 ft | 467 kts | 277° |
| 2026-05-06 14:27 | 52.44755 | -13.35532 | 36043 ft | 468 kts | 276° |
| 2026-05-06 14:28 | 52.45160 | -13.46114 | 36041 ft | 468 kts | 276° |
| 2026-05-06 14:28 | 52.45560 | -13.56812 | 36030 ft | 468 kts | 276° |
| 2026-05-06 14:29 | 52.45949 | -13.67417 | 36042 ft | 468 kts | 276° |
| 2026-05-06 14:29 | 52.46331 | -13.78088 | 36046 ft | 467 kts | 276° |
| 2026-05-06 14:30 | 52.46700 | -13.88714 | 36036 ft | 466 kts | 276° |
| 2026-05-06 14:30 | 52.47057 | -13.99274 | 36039 ft | 464 kts | 276° |
| 2026-05-06 14:31 | 52.47408 | -14.09847 | 36027 ft | 464 kts | 276° |
| 2026-05-06 14:31 | 52.47746 | -14.20373 | 36040 ft | 463 kts | 275° |
| 2026-05-06 14:32 | 52.48074 | -14.30950 | 36040 ft | 463 kts | 275° |
| 2026-05-06 14:32 | 52.48396 | -14.41523 | 36040 ft | 463 kts | 275° |
| 2026-05-06 14:33 | 52.48706 | -14.52059 | 36038 ft | 464 kts | 275° |
| 2026-05-06 14:33 | 52.49007 | -14.62638 | 36030 ft | 464 kts | 275° |
| 2026-05-06 14:34 | 52.49241 | -14.71030 | 36050 ft | 464 kts | 275° |
| 2026-05-06 14:34 | 52.49383 | -14.76263 | 36302 ft | 461 kts | 275° |
| 2026-05-06 14:34 | 52.49523 | -14.81501 | 36562 ft | 460 kts | 275° |
| 2026-05-06 14:35 | 52.49962 | -14.86699 | 36778 ft | 456 kts | 288° |
| 2026-05-06 14:35 | 52.51120 | -14.91476 | 36965 ft | 454 kts | 301° |
| 2026-05-06 14:35 | 52.53520 | -15.01007 | 37036 ft | 460 kts | 281° |
| 2026-05-06 14:36 | 52.54665 | -15.11353 | 37042 ft | 466 kts | 283° |
| 2026-05-06 14:36 | 52.55981 | -15.21759 | 37019 ft | 461 kts | 283° |
| 2026-05-06 14:37 | 52.57250 | -15.31988 | 37025 ft | 456 kts | 283° |
| 2026-05-06 14:37 | 52.58480 | -15.42229 | 37035 ft | 455 kts | 283° |
| 2026-05-06 14:38 | 52.59688 | -15.52453 | 37033 ft | 456 kts | 283° |
| 2026-05-06 14:38 | 52.60879 | -15.62632 | 37035 ft | 457 kts | 283° |
| 2026-05-06 14:39 | 52.62072 | -15.72906 | 37033 ft | 458 kts | 282° |
| 2026-05-06 14:39 | 52.63263 | -15.83248 | 37032 ft | 459 kts | 282° |
| 2026-05-06 14:40 | 52.64439 | -15.93536 | 37035 ft | 460 kts | 282° |
| 2026-05-06 14:40 | 52.65611 | -16.03878 | 37037 ft | 460 kts | 282° |
| 2026-05-06 14:41 | 52.66772 | -16.14211 | 37031 ft | 459 kts | 282° |
| 2026-05-06 14:41 | 52.67925 | -16.24561 | 37028 ft | 459 kts | 282° |
| 2026-05-06 14:42 | 52.69065 | -16.34876 | 37029 ft | 457 kts | 282° |
| 2026-05-06 14:42 | 52.70193 | -16.45163 | 37027 ft | 457 kts | 282° |
| 2026-05-06 14:43 | 52.71125 | -16.53717 | 37027 ft | 456 kts | 282° |
| 2026-05-06 14:43 | 52.72236 | -16.64006 | 37026 ft | 456 kts | 281° |
| 2026-05-06 14:44 | 52.73338 | -16.74309 | 37024 ft | 456 kts | 281° |
| 2026-05-06 14:45 | 52.74978 | -16.89787 | 37034 ft | 456 kts | 281° |
| 2026-05-06 14:45 | 52.76061 | -17.00142 | 37023 ft | 457 kts | 281° |
| 2026-05-06 14:46 | 52.77130 | -17.10426 | 37028 ft | 458 kts | 281° |
| 2026-05-06 14:46 | 52.78196 | -17.20798 | 37023 ft | 458 kts | 281° |
| 2026-05-06 14:47 | 52.79257 | -17.31207 | 37026 ft | 458 kts | 281° |
| 2026-05-06 14:47 | 52.80305 | -17.41570 | 37012 ft | 457 kts | 280° |
| 2026-05-06 14:48 | 52.81338 | -17.51884 | 37021 ft | 457 kts | 280° |
| 2026-05-06 14:48 | 52.82371 | -17.62302 | 37022 ft | 458 kts | 280° |
| 2026-05-06 14:49 | 52.83392 | -17.72684 | 37026 ft | 458 kts | 280° |
| 2026-05-06 14:49 | 52.84402 | -17.83064 | 37017 ft | 458 kts | 280° |
| 2026-05-06 14:50 | 52.85403 | -17.93445 | 37014 ft | 459 kts | 279° |
| 2026-05-06 14:50 | 52.86396 | -18.03849 | 37017 ft | 459 kts | 279° |
| 2026-05-06 14:51 | 52.87387 | -18.14304 | 37017 ft | 459 kts | 279° |
| 2026-05-06 14:51 | 52.88361 | -18.24700 | 37018 ft | 460 kts | 279° |
| 2026-05-06 14:52 | 52.89331 | -18.35175 | 37020 ft | 459 kts | 279° |
| 2026-05-06 14:52 | 52.90294 | -18.45638 | 37016 ft | 460 kts | 279° |
| 2026-05-06 14:53 | 52.91247 | -18.56122 | 37011 ft | 460 kts | 278° |
| 2026-05-06 14:53 | 52.92188 | -18.66562 | 37011 ft | 460 kts | 278° |
| 2026-05-06 14:54 | 52.93122 | -18.77059 | 37016 ft | 460 kts | 278° |
| 2026-05-06 14:54 | 52.94044 | -18.87514 | 37012 ft | 460 kts | 278° |
| 2026-05-06 14:55 | 52.94965 | -18.98043 | 37013 ft | 460 kts | 278° |
| 2026-05-06 14:55 | 52.95867 | -19.08507 | 37026 ft | 460 kts | 277° |
| 2026-05-06 14:56 | 52.96762 | -19.18992 | 37018 ft | 460 kts | 277° |
| 2026-05-06 14:56 | 52.97650 | -19.29494 | 37018 ft | 460 kts | 277° |
| 2026-05-06 14:57 | 52.98530 | -19.40005 | 37020 ft | 460 kts | 277° |
| 2026-05-06 14:57 | 52.99401 | -19.50558 | 37018 ft | 460 kts | 277° |
| 2026-05-06 14:58 | 53.00263 | -19.61091 | 37019 ft | 460 kts | 277° |
| 2026-05-06 14:58 | 53.01112 | -19.71605 | 37013 ft | 460 kts | 276° |
| 2026-05-06 14:59 | 53.01957 | -19.82161 | 37016 ft | 460 kts | 276° |
| 2026-05-06 14:59 | 53.02787 | -19.92652 | 37020 ft | 461 kts | 276° |
| 2026-05-06 15:00 | 53.03520 | -20.03218 | 37015 ft | 460 kts | 273° |
| 2026-05-06 15:00 | 53.03960 | -20.13820 | 37035 ft | 460 kts | 272° |
| 2026-05-06 15:01 | 53.04360 | -20.24456 | 37019 ft | 461 kts | 272° |
| 2026-05-06 15:01 | 53.04762 | -20.35048 | 37015 ft | 461 kts | 272° |
| 2026-05-06 15:02 | 53.05169 | -20.45670 | 37018 ft | 460 kts | 272° |
| 2026-05-06 15:02 | 53.05572 | -20.56340 | 37018 ft | 460 kts | 272° |
| 2026-05-06 15:03 | 53.05962 | -20.66911 | 37018 ft | 460 kts | 272° |
| 2026-05-06 15:03 | 53.06344 | -20.77511 | 37020 ft | 460 kts | 272° |
| 2026-05-06 15:04 | 53.06716 | -20.88170 | 37021 ft | 460 kts | 272° |
| 2026-05-06 15:04 | 53.07076 | -20.98757 | 37023 ft | 461 kts | 271° |
| 2026-05-06 15:05 | 53.07431 | -21.09379 | 37018 ft | 461 kts | 271° |
| 2026-05-06 15:05 | 53.07778 | -21.20045 | 37021 ft | 462 kts | 271° |
| 2026-05-06 15:06 | 53.08113 | -21.30677 | 37033 ft | 462 kts | 271° |
| 2026-05-06 15:06 | 53.08438 | -21.41378 | 37023 ft | 462 kts | 271° |
| 2026-05-06 15:07 | 53.08752 | -21.52024 | 37015 ft | 462 kts | 271° |
| 2026-05-06 15:07 | 53.09060 | -21.62710 | 37017 ft | 462 kts | 271° |
| 2026-05-06 15:08 | 53.09359 | -21.73387 | 37018 ft | 462 kts | 271° |
| 2026-05-06 15:08 | 53.09646 | -21.84078 | 37019 ft | 461 kts | 271° |
| 2026-05-06 15:09 | 53.09922 | -21.94691 | 37017 ft | 461 kts | 270° |
| 2026-05-06 15:09 | 53.10191 | -22.05390 | 37024 ft | 462 kts | 270° |
| 2026-05-06 15:10 | 53.10449 | -22.16031 | 37032 ft | 463 kts | 270° |
| 2026-05-06 15:10 | 53.10701 | -22.26783 | 37032 ft | 463 kts | 270° |
| 2026-05-06 15:11 | 53.10941 | -22.37447 | 37033 ft | 463 kts | 270° |
| 2026-05-06 15:11 | 53.11174 | -22.48225 | 37030 ft | 464 kts | 270° |
| 2026-05-06 15:12 | 53.11396 | -22.58957 | 37034 ft | 465 kts | 270° |
| 2026-05-06 15:12 | 53.11606 | -22.69698 | 37028 ft | 465 kts | 270° |
| 2026-05-06 15:13 | 53.11808 | -22.80400 | 37035 ft | 465 kts | 270° |
| 2026-05-06 15:13 | 53.12004 | -22.91196 | 37033 ft | 465 kts | 270° |
| 2026-05-06 15:14 | 53.12187 | -23.01910 | 37041 ft | 465 kts | 269° |
| 2026-05-06 15:14 | 53.12359 | -23.12644 | 37032 ft | 465 kts | 269° |
| 2026-05-06 15:15 | 53.12526 | -23.23461 | 37035 ft | 466 kts | 269° |
| 2026-05-06 15:15 | 53.12678 | -23.34195 | 37031 ft | 466 kts | 269° |
| 2026-05-06 15:16 | 53.12823 | -23.44996 | 37035 ft | 465 kts | 269° |
| 2026-05-06 15:16 | 53.12957 | -23.55732 | 37028 ft | 465 kts | 269° |
| 2026-05-06 15:17 | 53.13082 | -23.66484 | 37033 ft | 465 kts | 269° |
| 2026-05-06 15:17 | 53.13198 | -23.77252 | 37039 ft | 466 kts | 269° |
| 2026-05-06 15:18 | 53.13303 | -23.88041 | 37030 ft | 466 kts | 269° |
| 2026-05-06 15:18 | 53.13401 | -23.98842 | 37038 ft | 466 kts | 269° |
| 2026-05-06 15:19 | 53.13490 | -24.09628 | 37039 ft | 466 kts | 269° |
| 2026-05-06 15:19 | 53.13566 | -24.20370 | 37041 ft | 466 kts | 269° |
| 2026-05-06 15:20 | 53.13631 | -24.31208 | 37040 ft | 467 kts | 269° |
| 2026-05-06 15:20 | 53.13689 | -24.41982 | 37038 ft | 467 kts | 269° |
| 2026-05-06 15:21 | 53.13737 | -24.52816 | 37037 ft | 467 kts | 269° |
| 2026-05-06 15:21 | 53.13774 | -24.63558 | 37039 ft | 466 kts | 268° |
| 2026-05-06 15:22 | 53.13803 | -24.74404 | 37037 ft | 467 kts | 269° |
| 2026-05-06 15:22 | 53.13820 | -24.85150 | 37038 ft | 466 kts | 268° |
| 2026-05-06 15:23 | 53.13828 | -24.95978 | 37050 ft | 466 kts | 268° |
| 2026-05-06 15:23 | 53.13827 | -25.06758 | 37034 ft | 466 kts | 268° |
| 2026-05-06 15:24 | 53.13814 | -25.17609 | 37037 ft | 466 kts | 268° |
| 2026-05-06 15:24 | 53.13795 | -25.28384 | 37033 ft | 466 kts | 268° |
| 2026-05-06 15:25 | 53.13763 | -25.39149 | 37028 ft | 466 kts | 268° |
| 2026-05-06 15:25 | 53.13724 | -25.49932 | 37031 ft | 467 kts | 268° |
| 2026-05-06 15:26 | 53.13672 | -25.60742 | 37030 ft | 467 kts | 268° |
| 2026-05-06 15:26 | 53.13613 | -25.71580 | 37027 ft | 467 kts | 268° |
| 2026-05-06 15:27 | 53.13545 | -25.82378 | 37028 ft | 467 kts | 268° |
| 2026-05-06 15:27 | 53.13465 | -25.93166 | 37030 ft | 467 kts | 268° |
| 2026-05-06 15:28 | 53.13375 | -26.03956 | 37030 ft | 467 kts | 268° |
| 2026-05-06 15:28 | 53.13276 | -26.14784 | 37030 ft | 467 kts | 268° |
| 2026-05-06 15:29 | 53.13167 | -26.25565 | 37029 ft | 467 kts | 268° |
| 2026-05-06 15:29 | 53.13048 | -26.36423 | 37027 ft | 467 kts | 268° |
| 2026-05-06 15:30 | 53.12921 | -26.47197 | 37024 ft | 468 kts | 268° |
| 2026-05-06 15:30 | 53.12783 | -26.58076 | 37030 ft | 468 kts | 268° |
| 2026-05-06 15:31 | 53.12634 | -26.68862 | 37035 ft | 468 kts | 268° |
| 2026-05-06 15:31 | 53.12476 | -26.79709 | 37020 ft | 468 kts | 268° |
| 2026-05-06 15:32 | 53.12221 | -26.95898 | 37023 ft | 467 kts | 268° |
| 2026-05-06 15:32 | 53.12038 | -27.06703 | 37016 ft | 467 kts | 267° |
| 2026-05-06 15:33 | 53.11847 | -27.17483 | 37025 ft | 467 kts | 267° |
| 2026-05-06 15:33 | 53.11644 | -27.28346 | 37010 ft | 468 kts | 267° |
| 2026-05-06 15:34 | 53.11434 | -27.39124 | 37011 ft | 467 kts | 267° |
| 2026-05-06 15:34 | 53.11212 | -27.49958 | 37007 ft | 467 kts | 267° |
| 2026-05-06 15:35 | 53.10979 | -27.60730 | 37013 ft | 467 kts | 267° |
| 2026-05-06 15:35 | 53.10737 | -27.71542 | 37011 ft | 467 kts | 267° |
| 2026-05-06 15:36 | 53.10489 | -27.82314 | 37008 ft | 468 kts | 267° |
| 2026-05-06 15:36 | 53.10227 | -27.93154 | 37008 ft | 468 kts | 267° |
| 2026-05-06 15:37 | 53.09957 | -28.03923 | 37003 ft | 468 kts | 267° |
| 2026-05-06 15:37 | 53.09674 | -28.14741 | 37002 ft | 468 kts | 267° |
| 2026-05-06 15:38 | 53.09387 | -28.25534 | 37000 ft | 468 kts | 267° |
| 2026-05-06 15:38 | 53.09086 | -28.36378 | 37001 ft | 468 kts | 266° |
| 2026-05-06 15:39 | 53.08777 | -28.47178 | 36997 ft | 469 kts | 266° |
| 2026-05-06 15:39 | 53.08457 | -28.57985 | 36999 ft | 469 kts | 266° |
| 2026-05-06 15:40 | 53.08182 | -28.67009 | 36989 ft | 469 kts | 266° |
| 2026-05-06 15:40 | 53.07841 | -28.77858 | 36994 ft | 469 kts | 266° |
| 2026-05-06 15:41 | 53.07492 | -28.88722 | 36988 ft | 469 kts | 266° |
| 2026-05-06 15:41 | 53.07137 | -28.99513 | 36988 ft | 469 kts | 266° |
| 2026-05-06 15:42 | 53.06768 | -29.10336 | 36982 ft | 469 kts | 266° |
| 2026-05-06 15:42 | 53.06387 | -29.21193 | 36991 ft | 470 kts | 266° |
| 2026-05-06 15:43 | 53.06000 | -29.31997 | 36977 ft | 470 kts | 266° |
| 2026-05-06 15:43 | 53.05601 | -29.42860 | 36983 ft | 469 kts | 266° |
| 2026-05-06 15:44 | 53.05195 | -29.53697 | 36974 ft | 469 kts | 266° |
| 2026-05-06 15:44 | 53.04780 | -29.64447 | 36975 ft | 469 kts | 266° |
| 2026-05-06 15:45 | 53.04354 | -29.75267 | 36968 ft | 469 kts | 266° |
| 2026-05-06 15:45 | 53.03916 | -29.86102 | 36971 ft | 469 kts | 266° |
| 2026-05-06 15:46 | 53.03472 | -29.96929 | 36971 ft | 469 kts | 266° |
| 2026-05-06 15:46 | 53.03210 | -30.07701 | 36972 ft | 469 kts | 269° |
| 2026-05-06 15:47 | 53.03133 | -30.18585 | 36973 ft | 470 kts | 269° |
| 2026-05-06 15:47 | 53.03059 | -30.29401 | 36975 ft | 470 kts | 269° |
| 2026-05-06 15:48 | 53.02957 | -30.40276 | 36980 ft | 469 kts | 269° |
| 2026-05-06 15:48 | 53.02836 | -30.51085 | 36981 ft | 468 kts | 269° |
| 2026-05-06 15:49 | 53.02701 | -30.61838 | 36973 ft | 467 kts | 269° |
| 2026-05-06 15:49 | 53.02557 | -30.72615 | 36989 ft | 466 kts | 269° |
| 2026-05-06 15:50 | 53.02404 | -30.83377 | 36983 ft | 465 kts | 269° |
| 2026-05-06 15:50 | 53.02242 | -30.94150 | 36994 ft | 465 kts | 269° |
| 2026-05-06 15:51 | 53.02070 | -31.04906 | 36994 ft | 466 kts | 268° |
| 2026-05-06 15:51 | 53.01889 | -31.15646 | 37003 ft | 466 kts | 269° |
| 2026-05-06 15:52 | 53.01700 | -31.26372 | 36990 ft | 467 kts | 268° |
| 2026-05-06 15:52 | 53.01497 | -31.37189 | 37009 ft | 468 kts | 268° |
| 2026-05-06 15:53 | 53.01285 | -31.48026 | 37002 ft | 469 kts | 268° |
| 2026-05-06 15:53 | 53.01063 | -31.58847 | 37009 ft | 469 kts | 268° |
| 2026-05-06 15:54 | 53.00834 | -31.69621 | 37011 ft | 469 kts | 268° |
| 2026-05-06 15:54 | 53.00592 | -31.80449 | 37010 ft | 469 kts | 268° |
| 2026-05-06 15:55 | 53.00340 | -31.91273 | 37019 ft | 469 kts | 268° |
| 2026-05-06 15:55 | 53.00079 | -32.02017 | 37021 ft | 468 kts | 268° |
| 2026-05-06 15:56 | 52.99808 | -32.12838 | 37020 ft | 468 kts | 268° |
| 2026-05-06 15:56 | 52.99529 | -32.23666 | 37020 ft | 469 kts | 268° |
| 2026-05-06 15:57 | 52.99240 | -32.34440 | 37026 ft | 469 kts | 268° |
| 2026-05-06 15:57 | 52.98937 | -32.45273 | 37018 ft | 469 kts | 268° |
| 2026-05-06 15:58 | 52.98628 | -32.56025 | 37035 ft | 469 kts | 268° |
| 2026-05-06 15:58 | 52.98309 | -32.66848 | 37025 ft | 469 kts | 268° |
| 2026-05-06 15:59 | 52.97980 | -32.77657 | 37041 ft | 469 kts | 268° |
| 2026-05-06 15:59 | 52.97639 | -32.88503 | 37033 ft | 469 kts | 268° |
| 2026-05-06 16:00 | 52.97291 | -32.99265 | 37047 ft | 469 kts | 268° |
| 2026-05-06 16:00 | 52.96932 | -33.10106 | 37046 ft | 470 kts | 268° |
| 2026-05-06 16:01 | 52.96564 | -33.20865 | 37047 ft | 470 kts | 267° |
| 2026-05-06 16:01 | 52.96183 | -33.31705 | 37046 ft | 470 kts | 267° |
| 2026-05-06 16:02 | 52.95793 | -33.42546 | 37048 ft | 470 kts | 267° |
| 2026-05-06 16:02 | 52.95396 | -33.53342 | 37057 ft | 470 kts | 267° |
| 2026-05-06 16:03 | 52.94989 | -33.64166 | 37051 ft | 470 kts | 267° |
| 2026-05-06 16:03 | 52.94568 | -33.75005 | 37063 ft | 470 kts | 267° |
| 2026-05-06 16:04 | 52.94141 | -33.85782 | 37053 ft | 471 kts | 267° |
| 2026-05-06 16:04 | 52.93701 | -33.96626 | 37067 ft | 471 kts | 267° |
| 2026-05-06 16:05 | 52.93251 | -34.07480 | 37065 ft | 472 kts | 267° |
| 2026-05-06 16:05 | 52.92794 | -34.18276 | 37068 ft | 472 kts | 267° |
| 2026-05-06 16:06 | 52.92323 | -34.29138 | 37069 ft | 472 kts | 267° |
| 2026-05-06 16:06 | 52.91843 | -34.40002 | 37070 ft | 472 kts | 267° |
| 2026-05-06 16:07 | 52.91352 | -34.50876 | 37077 ft | 472 kts | 267° |
| 2026-05-06 16:07 | 52.90855 | -34.61644 | 37073 ft | 472 kts | 267° |
| 2026-05-06 16:08 | 52.90345 | -34.72492 | 37076 ft | 472 kts | 267° |
| 2026-05-06 16:08 | 52.89827 | -34.83323 | 37076 ft | 471 kts | 267° |
| 2026-05-06 16:09 | 52.89298 | -34.94149 | 37080 ft | 471 kts | 267° |
| 2026-05-06 16:09 | 52.88761 | -35.04950 | 37077 ft | 470 kts | 267° |
| 2026-05-06 16:10 | 52.88217 | -35.15673 | 37088 ft | 469 kts | 267° |
| 2026-05-06 16:10 | 52.87661 | -35.26452 | 37086 ft | 469 kts | 267° |
| 2026-05-06 16:11 | 52.87096 | -35.37225 | 37086 ft | 469 kts | 267° |
| 2026-05-06 16:11 | 52.86524 | -35.47935 | 37088 ft | 469 kts | 266° |
| 2026-05-06 16:12 | 52.85937 | -35.58734 | 37088 ft | 469 kts | 267° |
| 2026-05-06 16:12 | 52.85347 | -35.69422 | 37090 ft | 469 kts | 267° |
| 2026-05-06 16:13 | 52.84743 | -35.80174 | 37089 ft | 469 kts | 267° |
| 2026-05-06 16:13 | 52.84128 | -35.90930 | 37091 ft | 469 kts | 266° |
| 2026-05-06 16:14 | 52.83512 | -36.01622 | 37089 ft | 468 kts | 267° |
| 2026-05-06 16:14 | 52.82876 | -36.12378 | 37081 ft | 468 kts | 267° |
| 2026-05-06 16:15 | 52.82236 | -36.23053 | 37095 ft | 467 kts | 267° |
| 2026-05-06 16:15 | 52.81588 | -36.33726 | 37098 ft | 467 kts | 267° |
| 2026-05-06 16:16 | 52.80932 | -36.44367 | 37102 ft | 467 kts | 266° |
| 2026-05-06 16:16 | 52.80261 | -36.55081 | 37100 ft | 467 kts | 266° |
| 2026-05-06 16:17 | 52.79586 | -36.65738 | 37097 ft | 467 kts | 266° |
| 2026-05-06 16:17 | 52.78898 | -36.76391 | 37095 ft | 466 kts | 266° |
| 2026-05-06 16:18 | 52.78201 | -36.87059 | 37105 ft | 466 kts | 266° |
| 2026-05-06 16:18 | 52.77498 | -36.97674 | 37105 ft | 466 kts | 266° |
| 2026-05-06 16:19 | 52.76782 | -37.08329 | 37105 ft | 466 kts | 266° |
| 2026-05-06 16:19 | 52.76061 | -37.18922 | 37104 ft | 466 kts | 266° |
| 2026-05-06 16:20 | 52.75325 | -37.29593 | 37103 ft | 466 kts | 266° |
| 2026-05-06 16:20 | 52.74583 | -37.40201 | 37110 ft | 465 kts | 266° |
| 2026-05-06 16:21 | 52.73835 | -37.50741 | 37108 ft | 464 kts | 266° |
| 2026-05-06 16:21 | 52.73078 | -37.61322 | 37108 ft | 464 kts | 266° |
| 2026-05-06 16:22 | 52.72311 | -37.71906 | 37105 ft | 464 kts | 266° |
| 2026-05-06 16:22 | 52.71533 | -37.82476 | 37099 ft | 463 kts | 266° |
| 2026-05-06 16:23 | 52.70749 | -37.92966 | 37108 ft | 463 kts | 266° |
| 2026-05-06 16:23 | 52.69956 | -38.03499 | 37110 ft | 462 kts | 266° |
| 2026-05-06 16:24 | 52.69155 | -38.14014 | 37108 ft | 461 kts | 266° |
| 2026-05-06 16:24 | 52.68344 | -38.24530 | 37117 ft | 461 kts | 266° |
| 2026-05-06 16:25 | 52.67524 | -38.34989 | 37119 ft | 462 kts | 266° |
| 2026-05-06 16:25 | 52.66699 | -38.45446 | 37120 ft | 462 kts | 266° |
| 2026-05-06 16:26 | 52.65857 | -38.55971 | 37115 ft | 462 kts | 266° |
| 2026-05-06 16:26 | 52.65006 | -38.66485 | 37119 ft | 463 kts | 266° |
| 2026-05-06 16:27 | 52.64149 | -38.76948 | 37127 ft | 462 kts | 266° |
| 2026-05-06 16:27 | 52.63287 | -38.87405 | 37127 ft | 463 kts | 266° |
| 2026-05-06 16:28 | 52.62556 | -38.96154 | 37124 ft | 462 kts | 266° |
| 2026-05-06 16:28 | 52.61522 | -39.08380 | 37123 ft | 462 kts | 266° |
| 2026-05-06 16:29 | 52.60778 | -39.17093 | 37119 ft | 461 kts | 266° |
| 2026-05-06 16:29 | 52.59880 | -39.27536 | 37128 ft | 460 kts | 266° |
| 2026-05-06 16:30 | 52.59130 | -39.36147 | 37131 ft | 460 kts | 266° |
| 2026-05-06 16:30 | 52.58058 | -39.48324 | 37127 ft | 460 kts | 266° |
| 2026-05-06 16:31 | 52.57138 | -39.58659 | 37120 ft | 458 kts | 266° |
| 2026-05-06 16:31 | 52.56208 | -39.69021 | 37123 ft | 457 kts | 266° |
| 2026-05-06 16:32 | 52.55272 | -39.79352 | 37124 ft | 456 kts | 266° |
| 2026-05-06 16:32 | 52.54335 | -39.89592 | 37127 ft | 456 kts | 266° |
| 2026-05-06 16:33 | 52.53352 | -39.99904 | 37127 ft | 457 kts | 264° |
| 2026-05-06 16:34 | 52.50604 | -40.15016 | 37110 ft | 460 kts | 258° |
| 2026-05-06 16:34 | 52.48603 | -40.24928 | 37136 ft | 459 kts | 258° |
| 2026-05-06 16:35 | 52.46613 | -40.34853 | 37134 ft | 458 kts | 258° |
| 2026-05-06 16:35 | 52.44626 | -40.44806 | 37132 ft | 457 kts | 258° |
| 2026-05-06 16:36 | 52.42647 | -40.54678 | 37094 ft | 457 kts | 258° |
| 2026-05-06 16:36 | 52.40655 | -40.64558 | 37124 ft | 454 kts | 258° |
| 2026-05-06 16:37 | 52.38681 | -40.74317 | 37136 ft | 453 kts | 258° |
| 2026-05-06 16:37 | 52.36689 | -40.84102 | 37137 ft | 451 kts | 258° |
| 2026-05-06 16:38 | 52.34695 | -40.93844 | 37134 ft | 451 kts | 258° |
| 2026-05-06 16:38 | 52.32698 | -41.03552 | 37108 ft | 450 kts | 258° |
| 2026-05-06 16:39 | 52.30706 | -41.13194 | 37134 ft | 449 kts | 258° |
| 2026-05-06 16:39 | 52.28701 | -41.22859 | 37145 ft | 448 kts | 258° |
| 2026-05-06 16:40 | 52.26687 | -41.32519 | 37145 ft | 448 kts | 258° |
| 2026-05-06 16:40 | 52.24679 | -41.42099 | 37150 ft | 449 kts | 258° |
| 2026-05-06 16:41 | 52.22649 | -41.51741 | 37114 ft | 449 kts | 258° |
| 2026-05-06 16:41 | 52.20608 | -41.61381 | 37143 ft | 449 kts | 258° |
| 2026-05-06 16:42 | 52.18562 | -41.71012 | 37153 ft | 449 kts | 258° |
| 2026-05-06 16:42 | 52.16520 | -41.80577 | 37156 ft | 450 kts | 258° |
| 2026-05-06 16:43 | 52.14449 | -41.90229 | 37151 ft | 451 kts | 258° |
| 2026-05-06 16:43 | 52.12366 | -41.99887 | 37136 ft | 452 kts | 258° |
| 2026-05-06 16:44 | 52.10273 | -42.09538 | 37155 ft | 452 kts | 257° |
| 2026-05-06 16:44 | 52.08186 | -42.19124 | 37157 ft | 452 kts | 257° |
| 2026-05-06 16:45 | 52.06076 | -42.28773 | 37148 ft | 452 kts | 257° |
| 2026-05-06 16:45 | 52.03955 | -42.38423 | 37166 ft | 452 kts | 257° |
| 2026-05-06 16:46 | 52.01843 | -42.47989 | 37147 ft | 452 kts | 257° |
| 2026-05-06 16:46 | 51.99715 | -42.57581 | 37147 ft | 450 kts | 257° |
| 2026-05-06 16:47 | 51.97589 | -42.67117 | 37159 ft | 449 kts | 257° |
| 2026-05-06 16:47 | 51.95454 | -42.76657 | 37154 ft | 449 kts | 257° |
| 2026-05-06 16:48 | 51.93332 | -42.86100 | 37156 ft | 448 kts | 257° |
| 2026-05-06 16:48 | 51.91190 | -42.95587 | 37148 ft | 447 kts | 257° |
| 2026-05-06 16:49 | 51.89048 | -43.05022 | 37144 ft | 445 kts | 257° |
| 2026-05-06 16:49 | 51.86902 | -43.14436 | 37151 ft | 443 kts | 257° |
| 2026-05-06 16:50 | 51.84775 | -43.23724 | 37153 ft | 442 kts | 257° |
| 2026-05-06 16:50 | 51.82631 | -43.33060 | 37154 ft | 441 kts | 257° |
| 2026-05-06 16:51 | 51.80495 | -43.42313 | 37157 ft | 441 kts | 256° |
| 2026-05-06 16:51 | 51.78337 | -43.51620 | 37153 ft | 441 kts | 256° |
| 2026-05-06 16:52 | 51.76173 | -43.60912 | 37148 ft | 442 kts | 256° |
| 2026-05-06 16:52 | 51.74011 | -43.70151 | 37145 ft | 442 kts | 256° |
| 2026-05-06 16:53 | 51.71828 | -43.79445 | 37150 ft | 443 kts | 256° |
| 2026-05-06 16:53 | 51.69649 | -43.88678 | 37147 ft | 442 kts | 256° |
| 2026-05-06 16:54 | 51.67448 | -43.97965 | 37147 ft | 441 kts | 256° |
| 2026-05-06 16:54 | 51.65253 | -44.07181 | 37142 ft | 440 kts | 256° |
| 2026-05-06 16:55 | 51.63067 | -44.16323 | 37142 ft | 439 kts | 256° |
| 2026-05-06 16:55 | 51.60868 | -44.25488 | 37143 ft | 439 kts | 256° |
| 2026-05-06 16:56 | 51.58666 | -44.34630 | 37139 ft | 438 kts | 255° |
| 2026-05-06 16:56 | 51.56457 | -44.43763 | 37127 ft | 437 kts | 255° |
| 2026-05-06 16:57 | 51.54247 | -44.52862 | 37139 ft | 437 kts | 255° |
| 2026-05-06 16:57 | 51.52032 | -44.61938 | 37139 ft | 438 kts | 255° |
| 2026-05-06 16:58 | 51.49795 | -44.71061 | 37134 ft | 439 kts | 254° |
| 2026-05-06 16:58 | 51.47553 | -44.80169 | 37130 ft | 439 kts | 254° |
| 2026-05-06 16:59 | 51.45300 | -44.89277 | 37130 ft | 440 kts | 254° |
| 2026-05-06 16:59 | 51.43051 | -44.98350 | 37129 ft | 441 kts | 254° |
| 2026-05-06 17:00 | 51.40777 | -45.07486 | 37129 ft | 440 kts | 253° |
| 2026-05-06 17:00 | 51.38501 | -45.16572 | 37127 ft | 439 kts | 253° |
| 2026-05-06 17:01 | 51.36228 | -45.25629 | 37121 ft | 437 kts | 253° |
| 2026-05-06 17:01 | 51.33967 | -45.34580 | 37120 ft | 437 kts | 253° |
| 2026-05-06 17:02 | 51.31686 | -45.43580 | 37131 ft | 437 kts | 253° |
| 2026-05-06 17:02 | 51.29395 | -45.52604 | 37121 ft | 437 kts | 253° |
| 2026-05-06 17:03 | 51.27094 | -45.61627 | 37118 ft | 438 kts | 253° |
| 2026-05-06 17:03 | 51.24790 | -45.70609 | 37119 ft | 439 kts | 252° |
| 2026-05-06 17:04 | 51.22478 | -45.79608 | 37122 ft | 440 kts | 252° |
| 2026-05-06 17:04 | 51.20148 | -45.88627 | 37123 ft | 441 kts | 252° |
| 2026-05-06 17:05 | 51.17799 | -45.97671 | 37116 ft | 441 kts | 252° |
| 2026-05-06 17:05 | 51.15447 | -46.06702 | 37118 ft | 441 kts | 252° |
| 2026-05-06 17:06 | 51.13092 | -46.15718 | 37108 ft | 440 kts | 252° |
| 2026-05-06 17:06 | 51.10748 | -46.24645 | 37112 ft | 439 kts | 252° |
| 2026-05-06 17:07 | 51.08391 | -46.33595 | 37111 ft | 438 kts | 251° |
| 2026-05-06 17:07 | 51.06027 | -46.42524 | 37109 ft | 436 kts | 251° |
| 2026-05-06 17:08 | 51.03676 | -46.51380 | 37084 ft | 436 kts | 251° |
| 2026-05-06 17:08 | 51.01308 | -46.60265 | 37109 ft | 435 kts | 251° |
| 2026-05-06 17:09 | 50.98950 | -46.69080 | 37115 ft | 434 kts | 251° |
| 2026-05-06 17:09 | 50.96574 | -46.77922 | 37112 ft | 435 kts | 251° |
| 2026-05-06 17:10 | 50.94207 | -46.86682 | 37112 ft | 435 kts | 251° |
| 2026-05-06 17:10 | 50.91819 | -46.95512 | 37090 ft | 435 kts | 251° |
| 2026-05-06 17:11 | 50.89433 | -47.04300 | 37105 ft | 434 kts | 251° |
| 2026-05-06 17:11 | 50.87041 | -47.13065 | 37104 ft | 433 kts | 251° |
| 2026-05-06 17:12 | 50.84649 | -47.21801 | 37109 ft | 432 kts | 250° |
| 2026-05-06 17:12 | 50.82258 | -47.30512 | 37108 ft | 431 kts | 250° |
| 2026-05-06 17:13 | 50.79860 | -47.39209 | 37092 ft | 431 kts | 250° |
| 2026-05-06 17:13 | 50.77473 | -47.47825 | 37097 ft | 429 kts | 250° |
| 2026-05-06 17:14 | 50.75079 | -47.56436 | 37109 ft | 429 kts | 250° |
| 2026-05-06 17:14 | 50.72669 | -47.65078 | 37106 ft | 428 kts | 250° |
| 2026-05-06 17:15 | 50.70275 | -47.73632 | 37108 ft | 428 kts | 250° |
| 2026-05-06 17:15 | 50.67854 | -47.82248 | 37110 ft | 428 kts | 250° |
| 2026-05-06 17:16 | 50.65448 | -47.90783 | 37112 ft | 429 kts | 250° |
| 2026-05-06 17:16 | 50.63016 | -47.99382 | 37107 ft | 429 kts | 249° |
| 2026-05-06 17:17 | 50.60577 | -48.07970 | 37106 ft | 430 kts | 249° |
| 2026-05-06 17:17 | 50.58125 | -48.16566 | 37105 ft | 430 kts | 249° |
| 2026-05-06 17:18 | 50.55671 | -48.25148 | 37097 ft | 430 kts | 249° |
| 2026-05-06 17:18 | 50.53219 | -48.33687 | 37101 ft | 429 kts | 249° |
| 2026-05-06 17:19 | 50.51163 | -48.40824 | 37119 ft | 429 kts | 249° |
| 2026-05-06 17:19 | 50.48712 | -48.49306 | 37126 ft | 428 kts | 249° |
| 2026-05-06 17:20 | 50.46246 | -48.57806 | 37105 ft | 427 kts | 249° |
| 2026-05-06 17:20 | 50.43778 | -48.66290 | 37103 ft | 426 kts | 248° |
| 2026-05-06 17:21 | 50.41318 | -48.74714 | 37114 ft | 426 kts | 248° |
| 2026-05-06 17:21 | 50.38843 | -48.83152 | 37108 ft | 425 kts | 248° |
| 2026-05-06 17:22 | 50.36365 | -48.91571 | 37114 ft | 425 kts | 248° |
| 2026-05-06 17:22 | 50.33886 | -48.99971 | 37109 ft | 425 kts | 248° |
| 2026-05-06 17:23 | 50.31414 | -49.08318 | 37094 ft | 425 kts | 248° |
| 2026-05-06 17:23 | 50.28918 | -49.16716 | 37108 ft | 425 kts | 248° |
| 2026-05-06 17:24 | 50.26421 | -49.25088 | 37115 ft | 425 kts | 248° |
| 2026-05-06 17:24 | 50.23914 | -49.33464 | 37115 ft | 426 kts | 247° |
| 2026-05-06 17:25 | 50.21412 | -49.41803 | 37115 ft | 426 kts | 247° |
| 2026-05-06 17:25 | 50.18887 | -49.50174 | 37098 ft | 426 kts | 247° |
| 2026-05-06 17:26 | 50.16353 | -49.58554 | 37111 ft | 426 kts | 247° |
| 2026-05-06 17:26 | 50.13823 | -49.66897 | 37117 ft | 426 kts | 247° |
| 2026-05-06 17:27 | 50.11277 | -49.75255 | 37120 ft | 426 kts | 247° |
| 2026-05-06 17:27 | 50.08738 | -49.83567 | 37116 ft | 426 kts | 246° |
| 2026-05-06 17:28 | 50.06186 | -49.91899 | 37113 ft | 426 kts | 246° |
| 2026-05-06 17:28 | 50.03622 | -50.00240 | 37108 ft | 426 kts | 246° |
| 2026-05-06 17:29 | 50.01433 | -50.08721 | 37122 ft | 425 kts | 251° |
| 2026-05-06 17:29 | 49.99382 | -50.17337 | 37114 ft | 425 kts | 251° |
| 2026-05-06 17:30 | 49.97310 | -50.25978 | 37113 ft | 425 kts | 251° |
| 2026-05-06 17:30 | 49.95243 | -50.34530 | 37105 ft | 425 kts | 250° |
| 2026-05-06 17:31 | 49.93149 | -50.43146 | 37120 ft | 426 kts | 250° |
| 2026-05-06 17:31 | 49.91049 | -50.51757 | 37113 ft | 426 kts | 250° |
| 2026-05-06 17:32 | 49.88939 | -50.60368 | 37121 ft | 427 kts | 250° |
| 2026-05-06 17:32 | 49.86836 | -50.68917 | 37121 ft | 427 kts | 250° |
| 2026-05-06 17:33 | 49.84711 | -50.77528 | 37113 ft | 427 kts | 250° |
| 2026-05-06 17:33 | 49.82590 | -50.86090 | 37116 ft | 427 kts | 250° |
| 2026-05-06 17:34 | 49.80455 | -50.94678 | 37114 ft | 427 kts | 250° |
| 2026-05-06 17:34 | 49.78317 | -51.03241 | 37114 ft | 426 kts | 250° |
| 2026-05-06 17:35 | 49.76172 | -51.11802 | 37117 ft | 426 kts | 250° |
| 2026-05-06 17:35 | 49.74024 | -51.20340 | 37098 ft | 426 kts | 249° |
| 2026-05-06 17:36 | 49.70803 | -51.33086 | 37110 ft | 426 kts | 249° |
| 2026-05-06 17:36 | 49.68498 | -51.41506 | 37087 ft | 425 kts | 237° |
| 2026-05-06 17:37 | 49.64634 | -51.48501 | 37112 ft | 428 kts | 233° |
| 2026-05-06 17:37 | 49.61449 | -51.56175 | 37118 ft | 428 kts | 245° |
| 2026-05-06 17:38 | 49.59075 | -51.64624 | 37108 ft | 430 kts | 249° |
| 2026-05-06 17:38 | 49.56917 | -51.73227 | 37381 ft | 432 kts | 249° |
| 2026-05-06 17:39 | 49.55828 | -51.77529 | 37818 ft | 429 kts | 249° |
| 2026-05-06 17:39 | 49.54732 | -51.81808 | 38144 ft | 429 kts | 249° |
| 2026-05-06 17:39 | 49.52515 | -51.90353 | 38114 ft | 428 kts | 249° |
| 2026-05-06 17:40 | 49.50439 | -51.98749 | 38101 ft | 416 kts | 253° |
| 2026-05-06 17:40 | 49.49186 | -52.07433 | 38104 ft | 415 kts | 261° |
| 2026-05-06 17:41 | 49.48294 | -52.16233 | 38094 ft | 416 kts | 261° |
| 2026-05-06 17:41 | 49.47391 | -52.25050 | 38095 ft | 418 kts | 261° |
| 2026-05-06 17:42 | 49.46471 | -52.33859 | 38084 ft | 420 kts | 261° |
| 2026-05-06 17:42 | 49.45532 | -52.42746 | 38082 ft | 421 kts | 261° |
| 2026-05-06 17:43 | 49.44587 | -52.51600 | 38083 ft | 422 kts | 261° |
| 2026-05-06 17:43 | 49.43626 | -52.60507 | 38096 ft | 422 kts | 260° |
| 2026-05-06 17:44 | 49.42668 | -52.69379 | 38077 ft | 421 kts | 260° |
| 2026-05-06 17:44 | 49.41706 | -52.78197 | 38075 ft | 419 kts | 260° |
| 2026-05-06 17:45 | 49.40733 | -52.87034 | 38066 ft | 418 kts | 260° |
| 2026-05-06 17:45 | 49.39761 | -52.95815 | 38066 ft | 416 kts | 260° |
| 2026-05-06 17:46 | 49.38782 | -53.04586 | 38067 ft | 415 kts | 260° |
| 2026-05-06 17:46 | 49.37805 | -53.13288 | 38062 ft | 415 kts | 260° |
| 2026-05-06 17:47 | 49.36820 | -53.22000 | 38054 ft | 415 kts | 259° |
| 2026-05-06 17:47 | 49.35830 | -53.30694 | 38067 ft | 415 kts | 259° |
| 2026-05-06 17:48 | 49.34827 | -53.39440 | 38063 ft | 416 kts | 259° |
| 2026-05-06 17:48 | 49.33817 | -53.48173 | 38061 ft | 417 kts | 259° |
| 2026-05-06 17:49 | 49.32792 | -53.56981 | 38064 ft | 418 kts | 259° |
| 2026-05-06 17:49 | 49.31766 | -53.65734 | 38063 ft | 419 kts | 259° |
| 2026-05-06 17:50 | 49.30727 | -53.74542 | 38050 ft | 420 kts | 259° |
| 2026-05-06 17:50 | 49.29681 | -53.83360 | 38061 ft | 420 kts | 259° |
| 2026-05-06 17:51 | 49.28626 | -53.92173 | 38065 ft | 421 kts | 259° |
| 2026-05-06 17:51 | 49.27568 | -54.00965 | 38071 ft | 421 kts | 258° |
| 2026-05-06 17:52 | 49.26499 | -54.09787 | 38069 ft | 420 kts | 258° |
| 2026-05-06 17:52 | 49.25433 | -54.18532 | 38051 ft | 420 kts | 258° |
| 2026-05-06 17:53 | 49.24354 | -54.27310 | 38068 ft | 419 kts | 258° |
| 2026-05-06 17:53 | 49.23271 | -54.36076 | 38069 ft | 419 kts | 258° |
| 2026-05-06 17:54 | 49.22180 | -54.44856 | 38081 ft | 419 kts | 258° |
| 2026-05-06 17:54 | 49.21088 | -54.53565 | 38076 ft | 420 kts | 258° |
| 2026-05-06 17:55 | 49.19980 | -54.62350 | 38089 ft | 420 kts | 258° |
| 2026-05-06 17:55 | 49.18868 | -54.71129 | 38089 ft | 420 kts | 258° |
| 2026-05-06 17:56 | 49.17755 | -54.79843 | 38066 ft | 420 kts | 258° |
| 2026-05-06 17:56 | 49.16628 | -54.88615 | 38060 ft | 420 kts | 258° |
| 2026-05-06 17:57 | 49.15495 | -54.97380 | 38080 ft | 421 kts | 258° |
| 2026-05-06 17:57 | 49.14350 | -55.06171 | 38071 ft | 422 kts | 258° |
| 2026-05-06 17:58 | 49.13197 | -55.14963 | 38068 ft | 423 kts | 258° |
| 2026-05-06 17:58 | 49.12038 | -55.23778 | 38086 ft | 423 kts | 258° |
| 2026-05-06 17:59 | 49.10874 | -55.32545 | 38076 ft | 424 kts | 258° |
| 2026-05-06 17:59 | 49.09695 | -55.41398 | 38074 ft | 424 kts | 258° |
| 2026-05-06 18:00 | 49.08511 | -55.50217 | 38087 ft | 424 kts | 258° |
| 2026-05-06 18:00 | 49.07327 | -55.58990 | 38063 ft | 424 kts | 258° |
| 2026-05-06 18:01 | 49.06126 | -55.67822 | 38065 ft | 425 kts | 258° |
| 2026-05-06 18:01 | 49.04925 | -55.76596 | 38068 ft | 425 kts | 258° |
| 2026-05-06 18:02 | 49.03712 | -55.85419 | 38071 ft | 425 kts | 258° |
| 2026-05-06 18:02 | 49.02491 | -55.94236 | 38090 ft | 424 kts | 258° |
| 2026-05-06 18:03 | 49.01268 | -56.03027 | 38059 ft | 423 kts | 258° |
| 2026-05-06 18:03 | 49.00054 | -56.11702 | 38058 ft | 421 kts | 258° |
| 2026-05-06 18:04 | 48.98829 | -56.20405 | 38057 ft | 419 kts | 258° |
| 2026-05-06 18:04 | 48.97599 | -56.29082 | 38057 ft | 418 kts | 258° |
| 2026-05-06 18:05 | 48.96366 | -56.37744 | 38062 ft | 418 kts | 258° |
| 2026-05-06 18:05 | 48.95126 | -56.46397 | 38066 ft | 418 kts | 258° |
| 2026-05-06 18:06 | 48.93887 | -56.54992 | 38056 ft | 418 kts | 257° |
| 2026-05-06 18:06 | 48.92632 | -56.63652 | 38054 ft | 419 kts | 257° |
| 2026-05-06 18:07 | 48.91373 | -56.72295 | 38051 ft | 420 kts | 257° |
| 2026-05-06 18:07 | 48.90103 | -56.80953 | 38059 ft | 421 kts | 257° |
| 2026-05-06 18:08 | 48.88823 | -56.89640 | 38055 ft | 421 kts | 257° |
| 2026-05-06 18:08 | 48.87569 | -56.98345 | 38043 ft | 422 kts | 257° |
| 2026-05-06 18:09 | 48.86229 | -57.07040 | 38051 ft | 423 kts | 257° |
| 2026-05-06 18:09 | 48.85123 | -57.14288 | 38056 ft | 421 kts | 257° |
| 2026-05-06 18:10 | 48.83830 | -57.22944 | 38074 ft | 421 kts | 257° |
| 2026-05-06 18:10 | 48.82509 | -57.31622 | 38072 ft | 424 kts | 257° |
| 2026-05-06 18:11 | 48.81201 | -57.40321 | 38046 ft | 422 kts | 257° |
| 2026-05-06 18:11 | 48.79897 | -57.48941 | 38046 ft | 423 kts | 257° |
| 2026-05-06 18:12 | 48.78558 | -57.57646 | 38062 ft | 422 kts | 257° |
| 2026-05-06 18:12 | 48.77212 | -57.66255 | 38044 ft | 420 kts | 257° |
| 2026-05-06 18:13 | 48.75819 | -57.74828 | 38060 ft | 417 kts | 257° |
| 2026-05-06 18:13 | 48.74514 | -57.83420 | 38068 ft | 418 kts | 257° |
| 2026-05-06 18:14 | 48.73204 | -57.92013 | 38056 ft | 421 kts | 257° |
| 2026-05-06 18:14 | 48.71854 | -58.00609 | 38058 ft | 421 kts | 257° |
| 2026-05-06 18:15 | 48.70447 | -58.09211 | 38057 ft | 423 kts | 256° |
| 2026-05-06 18:15 | 48.69039 | -58.17829 | 38045 ft | 422 kts | 257° |
| 2026-05-06 18:16 | 48.67682 | -58.26470 | 38124 ft | 421 kts | 256° |
| 2026-05-06 18:16 | 48.66269 | -58.35061 | 38073 ft | 421 kts | 255° |
| 2026-05-06 18:17 | 48.64869 | -58.43645 | 38059 ft | 420 kts | 256° |
| 2026-05-06 18:17 | 48.63537 | -58.52234 | 38083 ft | 419 kts | 256° |
| 2026-05-06 18:18 | 48.62144 | -58.60831 | 38066 ft | 422 kts | 255° |
| 2026-05-06 18:18 | 48.60705 | -58.69344 | 38036 ft | 419 kts | 256° |
| 2026-05-06 18:19 | 48.59297 | -58.77886 | 38055 ft | 417 kts | 256° |
| 2026-05-06 18:19 | 48.57893 | -58.86351 | 38041 ft | 414 kts | 256° |
| 2026-05-06 18:20 | 48.56504 | -58.94831 | 38039 ft | 415 kts | 255° |
| 2026-05-06 18:20 | 48.55065 | -59.03228 | 38042 ft | 417 kts | 255° |
| 2026-05-06 18:21 | 48.53604 | -59.11730 | 38041 ft | 420 kts | 255° |
| 2026-05-06 18:21 | 48.52173 | -59.20276 | 38028 ft | 418 kts | 256° |
| 2026-05-06 18:22 | 48.50756 | -59.28746 | 38045 ft | 415 kts | 255° |
| 2026-05-06 18:22 | 48.49343 | -59.37165 | 38038 ft | 416 kts | 255° |
| 2026-05-06 18:23 | 48.47884 | -59.45580 | 38029 ft | 412 kts | 255° |
| 2026-05-06 18:23 | 48.46413 | -59.53974 | 38041 ft | 415 kts | 255° |
| 2026-05-06 18:24 | 48.44935 | -59.62348 | 38033 ft | 417 kts | 255° |
| 2026-05-06 18:24 | 48.43470 | -59.70838 | 38021 ft | 415 kts | 255° |
| 2026-05-06 18:25 | 48.41995 | -59.79263 | 38025 ft | 415 kts | 254° |
| 2026-05-06 18:25 | 48.40521 | -59.87614 | 38023 ft | 414 kts | 256° |
| 2026-05-06 18:26 | 48.39103 | -59.96007 | 38005 ft | 414 kts | 255° |
| 2026-05-06 18:26 | 48.37621 | -60.04358 | 38020 ft | 418 kts | 254° |
| 2026-05-06 18:27 | 48.36067 | -60.12814 | 38006 ft | 417 kts | 254° |
| 2026-05-06 18:27 | 48.34470 | -60.21230 | 37994 ft | 418 kts | 254° |
| 2026-05-06 18:28 | 48.32950 | -60.29618 | 37990 ft | 413 kts | 255° |
| 2026-05-06 18:28 | 48.31471 | -60.37902 | 38013 ft | 412 kts | 253° |
| 2026-05-06 18:29 | 48.29951 | -60.46269 | 38008 ft | 417 kts | 255° |
| 2026-05-06 18:29 | 48.28438 | -60.54657 | 37976 ft | 415 kts | 255° |
| 2026-05-06 18:30 | 48.26907 | -60.62970 | 37992 ft | 411 kts | 254° |
| 2026-05-06 18:30 | 48.25386 | -60.71184 | 37986 ft | 410 kts | 254° |
| 2026-05-06 18:31 | 48.23857 | -60.79420 | 37984 ft | 410 kts | 254° |
| 2026-05-06 18:31 | 48.22325 | -60.87638 | 37977 ft | 410 kts | 254° |
| 2026-05-06 18:32 | 48.20782 | -60.95879 | 37977 ft | 410 kts | 254° |
| 2026-05-06 18:32 | 48.19234 | -61.04115 | 37999 ft | 411 kts | 255° |
| 2026-05-06 18:33 | 48.17676 | -61.12367 | 37979 ft | 410 kts | 255° |
| 2026-05-06 18:33 | 48.16118 | -61.20592 | 37969 ft | 409 kts | 255° |
| 2026-05-06 18:34 | 48.14569 | -61.28732 | 37974 ft | 408 kts | 255° |
| 2026-05-06 18:34 | 48.13007 | -61.36895 | 37938 ft | 407 kts | 254° |
| 2026-05-06 18:35 | 48.11440 | -61.45052 | 37960 ft | 407 kts | 255° |
| 2026-05-06 18:35 | 48.09876 | -61.53162 | 37967 ft | 407 kts | 255° |
| 2026-05-06 18:36 | 48.08301 | -61.61299 | 37960 ft | 407 kts | 255° |
| 2026-05-06 18:36 | 48.06727 | -61.69386 | 37961 ft | 407 kts | 254° |
| 2026-05-06 18:37 | 48.05145 | -61.77478 | 37956 ft | 405 kts | 254° |
| 2026-05-06 18:37 | 48.03558 | -61.85580 | 37953 ft | 403 kts | 254° |
| 2026-05-06 18:38 | 48.01978 | -61.93603 | 37938 ft | 402 kts | 255° |
| 2026-05-06 18:38 | 48.00403 | -62.01562 | 37948 ft | 400 kts | 254° |
| 2026-05-06 18:39 | 47.98815 | -62.09547 | 37948 ft | 400 kts | 254° |
| 2026-05-06 18:40 | 47.96441 | -62.21444 | 37947 ft | 400 kts | 254° |
| 2026-05-06 18:40 | 47.94846 | -62.29405 | 37947 ft | 400 kts | 253° |
| 2026-05-06 18:41 | 47.93252 | -62.37319 | 37938 ft | 399 kts | 253° |
| 2026-05-06 18:41 | 47.91646 | -62.45254 | 37932 ft | 398 kts | 254° |
| 2026-05-06 18:42 | 47.90052 | -62.53097 | 37930 ft | 397 kts | 254° |
| 2026-05-06 18:42 | 47.88449 | -62.60960 | 37928 ft | 396 kts | 254° |
| 2026-05-06 18:43 | 47.86850 | -62.68777 | 37928 ft | 395 kts | 254° |
| 2026-05-06 18:43 | 47.85238 | -62.76619 | 37929 ft | 395 kts | 254° |
| 2026-05-06 18:44 | 47.83631 | -62.84401 | 37954 ft | 395 kts | 254° |
| 2026-05-06 18:44 | 47.82014 | -62.92212 | 37924 ft | 395 kts | 253° |
| 2026-05-06 18:45 | 47.80391 | -63.00021 | 37922 ft | 394 kts | 253° |
| 2026-05-06 18:45 | 47.78777 | -63.07762 | 37923 ft | 394 kts | 253° |
| 2026-05-06 18:46 | 47.77149 | -63.15530 | 37915 ft | 393 kts | 253° |
| 2026-05-06 18:46 | 47.75515 | -63.23296 | 37914 ft | 393 kts | 253° |
| 2026-05-06 18:47 | 47.73881 | -63.31036 | 37909 ft | 392 kts | 253° |
| 2026-05-06 18:47 | 47.72253 | -63.38716 | 37909 ft | 392 kts | 253° |
| 2026-05-06 18:48 | 47.70610 | -63.46439 | 37894 ft | 392 kts | 253° |
| 2026-05-06 18:48 | 47.68960 | -63.54161 | 37910 ft | 393 kts | 252° |
| 2026-05-06 18:49 | 47.67295 | -63.61926 | 37906 ft | 394 kts | 252° |
| 2026-05-06 18:49 | 47.65634 | -63.69645 | 37906 ft | 395 kts | 252° |
| 2026-05-06 18:50 | 47.63952 | -63.77426 | 37901 ft | 396 kts | 252° |
| 2026-05-06 18:50 | 47.62268 | -63.85204 | 37899 ft | 396 kts | 252° |
| 2026-05-06 18:51 | 47.60578 | -63.92972 | 37872 ft | 396 kts | 252° |
| 2026-05-06 18:51 | 47.58882 | -64.00745 | 37893 ft | 396 kts | 252° |
| 2026-05-06 18:52 | 47.57179 | -64.08504 | 37900 ft | 396 kts | 252° |
| 2026-05-06 18:52 | 47.55483 | -64.16207 | 37895 ft | 395 kts | 251° |
| 2026-05-06 18:53 | 47.53771 | -64.23953 | 37895 ft | 395 kts | 251° |
| 2026-05-06 18:53 | 47.52060 | -64.31672 | 37887 ft | 394 kts | 251° |
| 2026-05-06 18:54 | 47.50349 | -64.39362 | 37884 ft | 393 kts | 251° |
| 2026-05-06 18:54 | 47.48645 | -64.46994 | 37876 ft | 393 kts | 251° |
| 2026-05-06 18:55 | 47.46927 | -64.54663 | 37884 ft | 393 kts | 251° |
| 2026-05-06 18:55 | 47.45199 | -64.62342 | 37882 ft | 394 kts | 251° |
| 2026-05-06 18:56 | 47.43468 | -64.70009 | 37886 ft | 394 kts | 251° |
| 2026-05-06 18:56 | 47.41729 | -64.77686 | 37871 ft | 393 kts | 251° |
| 2026-05-06 18:57 | 47.39990 | -64.85328 | 37872 ft | 392 kts | 251° |
| 2026-05-06 18:57 | 47.38259 | -64.92912 | 37841 ft | 392 kts | 251° |
| 2026-05-06 18:58 | 47.36516 | -65.00526 | 37865 ft | 391 kts | 251° |
| 2026-05-06 18:58 | 47.34767 | -65.08133 | 37874 ft | 392 kts | 251° |
| 2026-05-06 18:59 | 47.33012 | -65.15748 | 37872 ft | 393 kts | 251° |
| 2026-05-06 18:59 | 47.31244 | -65.23390 | 37904 ft | 393 kts | 250° |
| 2026-05-06 19:00 | 47.29485 | -65.30965 | 37877 ft | 393 kts | 250° |
| 2026-05-06 19:00 | 47.27712 | -65.38566 | 37870 ft | 392 kts | 250° |
| 2026-05-06 19:01 | 47.25942 | -65.46133 | 37870 ft | 390 kts | 250° |
| 2026-05-06 19:01 | 47.24174 | -65.53662 | 37867 ft | 388 kts | 250° |
| 2026-05-06 19:02 | 47.22703 | -65.59910 | 37869 ft | 388 kts | 250° |
| 2026-05-06 19:02 | 47.20931 | -65.67410 | 37873 ft | 387 kts | 250° |
| 2026-05-06 19:03 | 47.18867 | -65.76110 | 37870 ft | 387 kts | 250° |
| 2026-05-06 19:03 | 47.17384 | -65.82349 | 37895 ft | 389 kts | 250° |
| 2026-05-06 19:04 | 47.15591 | -65.89870 | 37885 ft | 389 kts | 250° |
| 2026-05-06 19:04 | 47.13793 | -65.97379 | 37862 ft | 389 kts | 250° |
| 2026-05-06 19:05 | 47.12003 | -66.04824 | 37862 ft | 389 kts | 250° |
| 2026-05-06 19:05 | 47.10195 | -66.12321 | 37864 ft | 389 kts | 250° |
| 2026-05-06 19:06 | 47.08381 | -66.19823 | 37858 ft | 389 kts | 250° |
| 2026-05-06 19:06 | 47.06577 | -66.27257 | 37857 ft | 389 kts | 249° |
| 2026-05-06 19:07 | 47.04754 | -66.34750 | 37850 ft | 390 kts | 249° |
| 2026-05-06 19:07 | 47.02922 | -66.42244 | 37846 ft | 391 kts | 249° |
| 2026-05-06 19:08 | 47.01080 | -66.49753 | 37849 ft | 390 kts | 249° |
| 2026-05-06 19:08 | 46.99249 | -66.57198 | 37849 ft | 389 kts | 249° |
| 2026-05-06 19:09 | 46.97412 | -66.64651 | 37841 ft | 389 kts | 249° |
| 2026-05-06 19:09 | 46.95569 | -66.72086 | 37845 ft | 388 kts | 249° |
| 2026-05-06 19:10 | 46.93722 | -66.79521 | 37841 ft | 388 kts | 249° |
| 2026-05-06 19:10 | 46.91885 | -66.86894 | 37844 ft | 388 kts | 249° |
| 2026-05-06 19:11 | 46.90031 | -66.94318 | 37888 ft | 391 kts | 248° |
| 2026-05-06 19:11 | 46.88285 | -67.01948 | 37837 ft | 398 kts | 254° |
| 2026-05-06 19:12 | 46.87268 | -67.09904 | 37837 ft | 401 kts | 259° |
| 2026-05-06 19:12 | 46.86899 | -67.18082 | 37832 ft | 403 kts | 263° |
| 2026-05-06 19:13 | 46.86648 | -67.26214 | 37826 ft | 402 kts | 263° |
| 2026-05-06 19:13 | 46.86388 | -67.34368 | 37826 ft | 400 kts | 263° |
| 2026-05-06 19:14 | 46.86111 | -67.42467 | 37876 ft | 400 kts | 262° |
| 2026-05-06 19:14 | 46.85818 | -67.50607 | 37846 ft | 399 kts | 262° |
| 2026-05-06 19:15 | 46.85522 | -67.58697 | 37828 ft | 398 kts | 262° |
| 2026-05-06 19:15 | 46.85219 | -67.66775 | 37814 ft | 398 kts | 262° |
| 2026-05-06 19:16 | 46.84915 | -67.74798 | 37824 ft | 398 kts | 262° |
| 2026-05-06 19:16 | 46.84602 | -67.82887 | 37822 ft | 399 kts | 262° |
| 2026-05-06 19:17 | 46.84282 | -67.90993 | 37844 ft | 400 kts | 262° |
| 2026-05-06 19:17 | 46.83956 | -67.99081 | 37832 ft | 402 kts | 262° |
| 2026-05-06 19:18 | 46.83621 | -68.07250 | 37832 ft | 402 kts | 262° |
| 2026-05-06 19:18 | 46.83281 | -68.15418 | 37815 ft | 402 kts | 262° |
| 2026-05-06 19:19 | 46.82936 | -68.23515 | 37832 ft | 401 kts | 262° |
| 2026-05-06 19:19 | 46.82587 | -68.31670 | 37886 ft | 401 kts | 262° |
| 2026-05-06 19:20 | 46.82232 | -68.39819 | 37855 ft | 402 kts | 261° |
| 2026-05-06 19:20 | 46.81870 | -68.47943 | 37853 ft | 403 kts | 261° |
| 2026-05-06 19:21 | 46.81500 | -68.56120 | 37848 ft | 403 kts | 261° |
| 2026-05-06 19:21 | 46.81124 | -68.64316 | 37852 ft | 403 kts | 261° |
| 2026-05-06 19:22 | 46.80744 | -68.72439 | 37863 ft | 403 kts | 261° |
| 2026-05-06 19:22 | 46.80355 | -68.80610 | 37851 ft | 403 kts | 261° |
| 2026-05-06 19:23 | 46.79971 | -68.88733 | 37856 ft | 402 kts | 261° |
| 2026-05-06 19:23 | 46.79571 | -68.96892 | 37856 ft | 403 kts | 261° |
| 2026-05-06 19:24 | 46.79164 | -69.05064 | 37854 ft | 403 kts | 261° |
| 2026-05-06 19:24 | 46.78757 | -69.13184 | 37854 ft | 403 kts | 261° |
| 2026-05-06 19:25 | 46.78342 | -69.21366 | 37878 ft | 404 kts | 261° |
| 2026-05-06 19:25 | 46.77918 | -69.29562 | 37865 ft | 405 kts | 261° |
| 2026-05-06 19:26 | 46.77489 | -69.37733 | 37850 ft | 405 kts | 261° |
| 2026-05-06 19:26 | 46.77050 | -69.45942 | 37843 ft | 406 kts | 261° |
| 2026-05-06 19:27 | 46.76611 | -69.54162 | 37865 ft | 406 kts | 261° |
| 2026-05-06 19:27 | 46.76165 | -69.62360 | 37858 ft | 407 kts | 261° |
| 2026-05-06 19:28 | 46.75709 | -69.70614 | 37877 ft | 409 kts | 261° |
| 2026-05-06 19:28 | 46.75244 | -69.78907 | 37857 ft | 410 kts | 261° |
| 2026-05-06 19:29 | 46.74776 | -69.87158 | 37852 ft | 410 kts | 261° |
| 2026-05-06 19:29 | 46.74299 | -69.95458 | 37850 ft | 410 kts | 261° |
| 2026-05-06 19:30 | 46.73816 | -70.03770 | 37850 ft | 411 kts | 260° |
| 2026-05-06 19:30 | 46.73330 | -70.12038 | 37850 ft | 411 kts | 260° |
| 2026-05-06 19:31 | 46.72834 | -70.20325 | 37859 ft | 412 kts | 261° |
| 2026-05-06 19:31 | 46.72080 | -70.32829 | 37813 ft | 413 kts | 260° |
| 2026-05-06 19:32 | 46.71563 | -70.41122 | 37824 ft | 412 kts | 261° |
| 2026-05-06 19:32 | 46.71044 | -70.49483 | 37844 ft | 413 kts | 260° |
| 2026-05-06 19:33 | 46.70521 | -70.57795 | 37893 ft | 413 kts | 260° |
| 2026-05-06 19:33 | 46.69990 | -70.66145 | 37856 ft | 415 kts | 260° |
| 2026-05-06 19:34 | 46.69452 | -70.74516 | 37853 ft | 416 kts | 260° |
| 2026-05-06 19:34 | 46.68905 | -70.82917 | 37854 ft | 416 kts | 260° |
| 2026-05-06 19:35 | 46.68350 | -70.91317 | 37852 ft | 416 kts | 260° |
| 2026-05-06 19:35 | 46.67793 | -70.99666 | 37849 ft | 415 kts | 260° |
| 2026-05-06 19:36 | 46.67228 | -71.08072 | 37860 ft | 416 kts | 260° |
| 2026-05-06 19:36 | 46.66660 | -71.16423 | 37858 ft | 416 kts | 260° |
| 2026-05-06 19:37 | 46.66080 | -71.24826 | 37838 ft | 416 kts | 260° |
| 2026-05-06 19:37 | 46.65596 | -71.31794 | 37835 ft | 416 kts | 260° |
| 2026-05-06 19:38 | 46.65188 | -71.37438 | 36847 ft | 422 kts | 257° |
| 2026-05-06 19:38 | 46.64428 | -71.41502 | 36114 ft | 411 kts | 243° |
| 2026-05-06 19:38 | 46.63110 | -71.45151 | 35442 ft | 404 kts | 234° |
| 2026-05-06 19:38 | 46.61362 | -71.48310 | 34820 ft | 396 kts | 224° |
| 2026-05-06 19:39 | 46.59438 | -71.51045 | 34289 ft | 390 kts | 222° |
| 2026-05-06 19:39 | 46.57493 | -71.53791 | 33621 ft | 386 kts | 222° |
| 2026-05-06 19:39 | 46.55576 | -71.56508 | 32980 ft | 381 kts | 222° |
| 2026-05-06 19:39 | 46.53696 | -71.59188 | 32376 ft | 376 kts | 223° |
| 2026-05-06 19:40 | 46.51864 | -71.61816 | 31801 ft | 371 kts | 223° |
| 2026-05-06 19:40 | 46.50031 | -71.64453 | 31235 ft | 367 kts | 224° |
| 2026-05-06 19:40 | 46.48220 | -71.67058 | 30683 ft | 364 kts | 224° |
| 2026-05-06 19:40 | 46.46424 | -71.69639 | 30142 ft | 361 kts | 224° |
| 2026-05-06 19:41 | 46.44665 | -71.72170 | 29559 ft | 358 kts | 225° |
| 2026-05-06 19:41 | 46.42892 | -71.74721 | 28930 ft | 355 kts | 225° |
| 2026-05-06 19:41 | 46.41169 | -71.77193 | 28414 ft | 350 kts | 225° |
| 2026-05-06 19:41 | 46.39448 | -71.79661 | 27970 ft | 344 kts | 225° |
| 2026-05-06 19:42 | 46.37748 | -71.82060 | 27591 ft | 338 kts | 224° |
| 2026-05-06 19:42 | 46.36057 | -71.84396 | 27194 ft | 333 kts | 224° |
| 2026-05-06 19:42 | 46.34369 | -71.86717 | 26789 ft | 334 kts | 224° |
| 2026-05-06 19:42 | 46.32687 | -71.89029 | 26412 ft | 338 kts | 224° |
| 2026-05-06 19:43 | 46.30969 | -71.91393 | 26026 ft | 342 kts | 224° |
| 2026-05-06 19:43 | 46.29243 | -71.93769 | 25620 ft | 343 kts | 225° |
| 2026-05-06 19:43 | 46.27513 | -71.96150 | 25231 ft | 343 kts | 225° |
| 2026-05-06 19:43 | 46.25807 | -71.98497 | 24838 ft | 343 kts | 225° |
| 2026-05-06 19:44 | 46.24080 | -72.00870 | 24443 ft | 343 kts | 225° |
| 2026-05-06 19:44 | 46.22349 | -72.03246 | 24056 ft | 342 kts | 225° |
| 2026-05-06 19:44 | 46.20627 | -72.05606 | 23645 ft | 342 kts | 225° |
| 2026-05-06 19:44 | 46.18898 | -72.07972 | 23214 ft | 342 kts | 225° |
| 2026-05-06 19:45 | 46.17175 | -72.10329 | 22751 ft | 341 kts | 225° |
| 2026-05-06 19:45 | 46.15453 | -72.12683 | 22346 ft | 338 kts | 225° |
| 2026-05-06 19:45 | 46.13767 | -72.14986 | 21948 ft | 336 kts | 225° |
| 2026-05-06 19:45 | 46.12070 | -72.17300 | 21564 ft | 334 kts | 225° |
| 2026-05-06 19:46 | 46.10388 | -72.19595 | 21183 ft | 332 kts | 225° |
| 2026-05-06 19:46 | 46.08708 | -72.21884 | 20805 ft | 330 kts | 225° |
| 2026-05-06 19:46 | 46.07036 | -72.24160 | 20403 ft | 328 kts | 225° |
| 2026-05-06 19:46 | 46.05386 | -72.26404 | 20027 ft | 325 kts | 225° |
| 2026-05-06 19:47 | 46.03765 | -72.28606 | 19653 ft | 323 kts | 225° |
| 2026-05-06 19:47 | 46.02135 | -72.30819 | 19305 ft | 321 kts | 226° |
| 2026-05-06 19:47 | 46.00504 | -72.33034 | 18922 ft | 319 kts | 226° |
| 2026-05-06 19:47 | 45.98891 | -72.35220 | 18542 ft | 318 kts | 226° |
| 2026-05-06 19:48 | 45.97287 | -72.37392 | 18173 ft | 316 kts | 226° |
| 2026-05-06 19:48 | 45.95710 | -72.39530 | 17769 ft | 314 kts | 227° |
| 2026-05-06 19:48 | 45.94361 | -72.41952 | 17364 ft | 308 kts | 240° |
| 2026-05-06 19:48 | 45.93366 | -72.44662 | 17025 ft | 305 kts | 242° |
| 2026-05-06 19:49 | 45.92389 | -72.47362 | 16665 ft | 303 kts | 242° |
| 2026-05-06 19:49 | 45.91415 | -72.50030 | 16309 ft | 300 kts | 242° |
| 2026-05-06 19:49 | 45.90443 | -72.52673 | 15962 ft | 298 kts | 242° |
| 2026-05-06 19:49 | 45.89475 | -72.55290 | 15620 ft | 296 kts | 242° |
| 2026-05-06 19:50 | 45.88504 | -72.57898 | 15274 ft | 295 kts | 241° |
| 2026-05-06 19:50 | 45.87551 | -72.60458 | 14941 ft | 293 kts | 241° |
| 2026-05-06 19:50 | 45.86584 | -72.63049 | 14597 ft | 293 kts | 241° |
| 2026-05-06 19:50 | 45.85622 | -72.65625 | 14261 ft | 293 kts | 241° |
| 2026-05-06 19:51 | 45.84658 | -72.68205 | 13914 ft | 292 kts | 241° |
| 2026-05-06 19:51 | 45.83694 | -72.70781 | 13566 ft | 292 kts | 241° |
| 2026-05-06 19:51 | 45.82731 | -72.73345 | 13188 ft | 292 kts | 241° |
| 2026-05-06 19:51 | 45.81771 | -72.75903 | 12843 ft | 291 kts | 241° |
| 2026-05-06 19:52 | 45.80826 | -72.78419 | 12498 ft | 289 kts | 241° |
| 2026-05-06 19:52 | 45.79867 | -72.80961 | 12150 ft | 288 kts | 241° |
| 2026-05-06 19:52 | 45.79237 | -72.82632 | 11927 ft | 287 kts | 241° |
| 2026-05-06 19:52 | 45.77977 | -72.85970 | 11491 ft | 286 kts | 241° |
| 2026-05-06 19:53 | 45.77033 | -72.88471 | 11176 ft | 285 kts | 241° |
| 2026-05-06 19:53 | 45.76410 | -72.90122 | 10968 ft | 282 kts | 241° |
| 2026-05-06 19:53 | 45.75484 | -72.92573 | 10633 ft | 276 kts | 241° |
| 2026-05-06 19:53 | 45.74571 | -72.94981 | 10297 ft | 273 kts | 241° |
| 2026-05-06 19:54 | 45.73674 | -72.97351 | 9983 ft | 270 kts | 242° |
| 2026-05-06 19:54 | 45.72781 | -72.99705 | 9665 ft | 267 kts | 241° |
| 2026-05-06 19:54 | 45.71954 | -73.02046 | 9287 ft | 258 kts | 250° |
| 2026-05-06 19:54 | 45.71628 | -73.04554 | 8939 ft | 254 kts | 262° |
| 2026-05-06 19:55 | 45.71405 | -73.07067 | 8619 ft | 254 kts | 259° |
| 2026-05-06 19:55 | 45.71142 | -73.09558 | 8332 ft | 251 kts | 259° |
| 2026-05-06 19:55 | 45.70879 | -73.11987 | 8040 ft | 249 kts | 260° |
| 2026-05-06 19:55 | 45.70557 | -73.14396 | 7736 ft | 246 kts | 255° |
| 2026-05-06 19:56 | 45.70124 | -73.16752 | 7471 ft | 244 kts | 254° |
| 2026-05-06 19:56 | 45.69681 | -73.19086 | 7205 ft | 242 kts | 254° |
| 2026-05-06 19:56 | 45.69245 | -73.21398 | 6939 ft | 239 kts | 255° |
| 2026-05-06 19:56 | 45.68817 | -73.23680 | 6693 ft | 237 kts | 255° |
| 2026-05-06 19:57 | 45.68394 | -73.25944 | 6441 ft | 234 kts | 255° |
| 2026-05-06 19:57 | 45.67982 | -73.28179 | 6177 ft | 231 kts | 255° |
| 2026-05-06 19:57 | 45.67573 | -73.30394 | 5901 ft | 229 kts | 255° |
| 2026-05-06 19:57 | 45.67170 | -73.32588 | 5639 ft | 227 kts | 256° |
| 2026-05-06 19:58 | 45.66773 | -73.34738 | 5371 ft | 225 kts | 256° |
| 2026-05-06 19:58 | 45.66372 | -73.36912 | 5111 ft | 226 kts | 257° |
| 2026-05-06 19:58 | 45.65968 | -73.39098 | 4856 ft | 227 kts | 257° |
| 2026-05-06 19:58 | 45.65570 | -73.41282 | 4601 ft | 227 kts | 258° |
| 2026-05-06 19:59 | 45.65173 | -73.43452 | 4331 ft | 225 kts | 257° |
| 2026-05-06 19:59 | 45.64775 | -73.45617 | 4100 ft | 224 kts | 257° |
| 2026-05-06 19:59 | 45.64378 | -73.47768 | 4052 ft | 225 kts | 257° |
| 2026-05-06 19:59 | 45.63978 | -73.49938 | 3832 ft | 225 kts | 257° |
| 2026-05-06 20:00 | 45.63589 | -73.52069 | 3663 ft | 217 kts | 257° |
| 2026-05-06 20:00 | 45.62986 | -73.53969 | 3463 ft | 208 kts | 232° |
| 2026-05-06 20:00 | 45.62040 | -73.55414 | 3326 ft | 196 kts | 228° |
| 2026-05-06 20:00 | 45.61096 | -73.56766 | 3191 ft | 187 kts | 226° |
| 2026-05-06 20:01 | 45.60170 | -73.58022 | 3129 ft | 183 kts | 225° |
| 2026-05-06 20:01 | 45.59242 | -73.59254 | 3049 ft | 182 kts | 224° |
| 2026-05-06 20:01 | 45.58299 | -73.60488 | 2878 ft | 186 kts | 224° |
| 2026-05-06 20:01 | 45.57353 | -73.61734 | 2632 ft | 184 kts | 224° |
| 2026-05-06 20:02 | 45.56434 | -73.62944 | 2390 ft | 180 kts | 224° |
| 2026-05-06 20:02 | 45.55527 | -73.64144 | 2143 ft | 175 kts | 224° |
| 2026-05-06 20:02 | 45.54671 | -73.65265 | 1934 ft | 159 kts | 223° |
| 2026-05-06 20:02 | 45.53887 | -73.66294 | 1700 ft | 145 kts | 223° |
| 2026-05-06 20:03 | 45.53177 | -73.67230 | 1523 ft | 139 kts | 224° |
| 2026-05-06 20:03 | 45.52458 | -73.68171 | 1316 ft | 140 kts | 223° |
| 2026-05-06 20:03 | 45.51735 | -73.69080 | 1084 ft | 137 kts | 222° |
| 2026-05-06 20:03 | 45.51051 | -73.70010 | 891 ft | 134 kts | 224° |
| 2026-05-06 20:04 | 45.50366 | -73.70924 | 682 ft | 135 kts | 223° |
| 2026-05-06 20:04 | 45.49678 | -73.71823 | 518 ft | 134 kts | 223° |
| 2026-05-06 20:04 | 45.48991 | -73.72718 | 335 ft | 133 kts | 223° |
| 2026-05-06 20:04 | 45.48310 | -73.73617 | 176 ft | 135 kts | 223° |
| 2026-05-06 20:05 | 45.47637 | -73.74500 | 112 ft | 122 kts | 222° |
| 2026-05-06 20:05 | 45.47127 | -73.75168 | 115 ft | 77 kts | 222° |
| 2026-05-06 20:05 | 45.46882 | -73.75484 | 111 ft | 21 kts | 218° |
| 2026-05-06 20:05 | 45.46790 | -73.75558 | 109 ft | 7 kts | 202° |
| 2026-05-06 20:06 | 45.46742 | -73.75582 | 112 ft | 8 kts | 197° |
| 2026-05-06 20:06 | 45.46681 | -73.75605 | 111 ft | 10 kts | 194° |
| 2026-05-06 20:06 | 45.46605 | -73.75632 | 111 ft | 12 kts | 193° |
| 2026-05-06 20:06 | 45.46516 | -73.75661 | 109 ft | 14 kts | 193° |
| 2026-05-06 20:07 | 45.46419 | -73.75692 | 109 ft | 12 kts | 193° |
| 2026-05-06 20:07 | 45.46356 | -73.75712 | 108 ft | 9 kts | 192° |
| 2026-05-06 20:07 | 45.46291 | -73.75727 | 109 ft | 10 kts | 187° |
| 2026-05-06 20:07 | 45.46218 | -73.75727 | 108 ft | 12 kts | 177° |
| 2026-05-06 20:08 | 45.46128 | -73.75721 | 107 ft | 12 kts | 177° |
| 2026-05-06 20:08 | 45.46076 | -73.75703 | 108 ft | 8 kts | 137° |
| 2026-05-06 20:08 | 45.46064 | -73.75675 | 109 ft | 0 kts | 116° |
| 2026-05-06 20:08 | 45.46060 | -73.75663 | 109 ft | 2 kts | 116° |
| 2026-05-06 20:09 | 45.46048 | -73.75650 | 109 ft | 4 kts | 149° |
| 2026-05-06 20:09 | 45.46013 | -73.75639 | 110 ft | 4 kts | 175° |
| 2026-05-06 20:09 | 45.45987 | -73.75636 | 110 ft | 2 kts | 176° |
| 2026-05-06 20:09 | 45.45985 | -73.75636 | 110 ft | 0 kts | 176° |